<?xml version="1.0" encoding="UTF-8" standalone="no" ?>
<gpx xmlns="http://www.topografix.com/GPX/1/1" xmlns:xsi="http://www.w3.org/2001/XMLSchema-instance" xsi:schemaLocation="http://www.topografix.com/GPX/1/1 http://www.topografix.com/GPX/1/1/gpx.xsd" version="1.1" creator="VisuGPX - https://www.visugpx.com">
  <metadata>
    <name>CREPY-2022-04-25 14:02</name>
    <desc><![CDATA[File with points/tracks from Locus Map/4.8.2]]></desc>
  </metadata>
  <trk>
    <name><![CDATA[2022-04-25 14:02]]></name>
    <extensions>
      <line xmlns="http://www.topografix.com/GPX/gpx_style/0/2">
        <color>0000FF</color>
        <opacity>0.59</opacity>
        <width>6.0</width>
      </line>
    </extensions>
    <trkseg>
      <trkpt lat="49.60583" lon="3.511">
        <ele>89.04</ele>
        <time>2022-04-25T12:02:41.000Z</time>
      </trkpt>
      <trkpt lat="49.60585" lon="3.51102">
        <ele>89.04</ele>
        <time>2022-04-25T12:02:51.000Z</time>
      </trkpt>
      <trkpt lat="49.60583" lon="3.511">
        <ele>88.99</ele>
        <time>2022-04-25T12:03:41.000Z</time>
      </trkpt>
      <trkpt lat="49.60581" lon="3.51099">
        <ele>88.94</ele>
        <time>2022-04-25T12:03:51.000Z</time>
      </trkpt>
      <trkpt lat="49.60581" lon="3.51101">
        <ele>88.84</ele>
        <time>2022-04-25T12:04:01.000Z</time>
      </trkpt>
      <trkpt lat="49.6058" lon="3.51103">
        <ele>88.84</ele>
        <time>2022-04-25T12:04:11.000Z</time>
      </trkpt>
      <trkpt lat="49.6058" lon="3.51104">
        <ele>88.84</ele>
        <time>2022-04-25T12:04:35.585Z</time>
      </trkpt>
      <trkpt lat="49.60581" lon="3.51105">
        <ele>88.84</ele>
        <time>2022-04-25T12:05:04.000Z</time>
      </trkpt>
      <trkpt lat="49.60581" lon="3.51103">
        <ele>88.84</ele>
        <time>2022-04-25T12:05:14.000Z</time>
      </trkpt>
      <trkpt lat="49.60581" lon="3.51101">
        <ele>88.94</ele>
        <time>2022-04-25T12:05:24.000Z</time>
      </trkpt>
      <trkpt lat="49.60582" lon="3.51101">
        <ele>89.04</ele>
        <time>2022-04-25T12:05:45.000Z</time>
      </trkpt>
      <trkpt lat="49.60583" lon="3.51102">
        <ele>88.94</ele>
        <time>2022-04-25T12:06:01.000Z</time>
      </trkpt>
      <trkpt lat="49.60584" lon="3.51101">
        <ele>89.04</ele>
        <time>2022-04-25T12:06:12.000Z</time>
      </trkpt>
      <trkpt lat="49.60584" lon="3.51102">
        <ele>88.84</ele>
        <time>2022-04-25T12:06:30.000Z</time>
      </trkpt>
      <trkpt lat="49.60583" lon="3.51103">
        <ele>89.04</ele>
        <time>2022-04-25T12:06:41.000Z</time>
      </trkpt>
      <trkpt lat="49.60582" lon="3.51101">
        <ele>89.04</ele>
        <time>2022-04-25T12:06:56.000Z</time>
      </trkpt>
      <trkpt lat="49.6058" lon="3.511">
        <ele>89.04</ele>
        <time>2022-04-25T12:07:06.000Z</time>
      </trkpt>
      <trkpt lat="49.60579" lon="3.51099">
        <ele>88.74</ele>
        <time>2022-04-25T12:07:22.000Z</time>
      </trkpt>
      <trkpt lat="49.60579" lon="3.51097">
        <ele>89.04</ele>
        <time>2022-04-25T12:07:32.000Z</time>
      </trkpt>
      <trkpt lat="49.6058" lon="3.51097">
        <ele>89.04</ele>
        <time>2022-04-25T12:08:00.000Z</time>
      </trkpt>
      <trkpt lat="49.60583" lon="3.51095">
        <ele>89.04</ele>
        <time>2022-04-25T12:08:10.000Z</time>
      </trkpt>
      <trkpt lat="49.60586" lon="3.51085">
        <ele>89.04</ele>
        <time>2022-04-25T12:08:20.000Z</time>
      </trkpt>
      <trkpt lat="49.60588" lon="3.51081">
        <ele>89.04</ele>
        <time>2022-04-25T12:08:30.000Z</time>
      </trkpt>
      <trkpt lat="49.60588" lon="3.51064">
        <ele>89.04</ele>
        <time>2022-04-25T12:08:39.586Z</time>
      </trkpt>
      <trkpt lat="49.60588" lon="3.51057">
        <ele>89.04</ele>
        <time>2022-04-25T12:08:49.000Z</time>
      </trkpt>
      <trkpt lat="49.60585" lon="3.5104">
        <ele>89.04</ele>
        <time>2022-04-25T12:08:58.203Z</time>
      </trkpt>
      <trkpt lat="49.6058" lon="3.51024">
        <ele>89.04</ele>
        <time>2022-04-25T12:09:08.000Z</time>
      </trkpt>
      <trkpt lat="49.60571" lon="3.51012">
        <ele>88.84</ele>
        <time>2022-04-25T12:09:17.523Z</time>
      </trkpt>
      <trkpt lat="49.60563" lon="3.51007">
        <ele>89.04</ele>
        <time>2022-04-25T12:09:26.764Z</time>
      </trkpt>
      <trkpt lat="49.60553" lon="3.51013">
        <ele>89.04</ele>
        <time>2022-04-25T12:09:36.303Z</time>
      </trkpt>
      <trkpt lat="49.60542" lon="3.51025">
        <ele>89.04</ele>
        <time>2022-04-25T12:09:45.746Z</time>
      </trkpt>
      <trkpt lat="49.60537" lon="3.51011">
        <ele>89.14</ele>
        <time>2022-04-25T12:09:55.205Z</time>
      </trkpt>
      <trkpt lat="49.60539" lon="3.50996">
        <ele>89.14</ele>
        <time>2022-04-25T12:10:04.304Z</time>
      </trkpt>
      <trkpt lat="49.6054" lon="3.50981">
        <ele>89.14</ele>
        <time>2022-04-25T12:10:13.745Z</time>
      </trkpt>
      <trkpt lat="49.60535" lon="3.50957">
        <ele>89.14</ele>
        <time>2022-04-25T12:10:23.000Z</time>
      </trkpt>
      <trkpt lat="49.60528" lon="3.50935">
        <ele>89.14</ele>
        <time>2022-04-25T12:10:33.000Z</time>
      </trkpt>
      <trkpt lat="49.60526" lon="3.50923">
        <ele>90.25</ele>
        <time>2022-04-25T12:10:43.000Z</time>
      </trkpt>
      <trkpt lat="49.60524" lon="3.50906">
        <ele>90.25</ele>
        <time>2022-04-25T12:10:53.000Z</time>
      </trkpt>
      <trkpt lat="49.6053" lon="3.50897">
        <ele>90.25</ele>
        <time>2022-04-25T12:11:02.083Z</time>
      </trkpt>
      <trkpt lat="49.60542" lon="3.509">
        <ele>91.15</ele>
        <time>2022-04-25T12:11:11.864Z</time>
      </trkpt>
      <trkpt lat="49.60552" lon="3.50897">
        <ele>91.45</ele>
        <time>2022-04-25T12:11:21.382Z</time>
      </trkpt>
      <trkpt lat="49.60558" lon="3.50886">
        <ele>91.22</ele>
        <time>2022-04-25T12:11:30.452Z</time>
      </trkpt>
      <trkpt lat="49.60565" lon="3.50877">
        <ele>91.22</ele>
        <time>2022-04-25T12:11:39.590Z</time>
      </trkpt>
      <trkpt lat="49.60573" lon="3.50873">
        <ele>91.25</ele>
        <time>2022-04-25T12:11:49.000Z</time>
      </trkpt>
      <trkpt lat="49.60585" lon="3.50864">
        <ele>91.25</ele>
        <time>2022-04-25T12:11:58.169Z</time>
      </trkpt>
      <trkpt lat="49.60595" lon="3.50855">
        <ele>91.25</ele>
        <time>2022-04-25T12:12:07.802Z</time>
      </trkpt>
      <trkpt lat="49.60598" lon="3.50843">
        <ele>91.15</ele>
        <time>2022-04-25T12:12:16.825Z</time>
      </trkpt>
      <trkpt lat="49.60606" lon="3.50837">
        <ele>91.52</ele>
        <time>2022-04-25T12:12:26.000Z</time>
      </trkpt>
      <trkpt lat="49.60616" lon="3.50831">
        <ele>91.65</ele>
        <time>2022-04-25T12:12:35.284Z</time>
      </trkpt>
      <trkpt lat="49.60631" lon="3.50827">
        <ele>91.65</ele>
        <time>2022-04-25T12:12:44.438Z</time>
      </trkpt>
      <trkpt lat="49.60646" lon="3.50829">
        <ele>91.65</ele>
        <time>2022-04-25T12:12:54.000Z</time>
      </trkpt>
      <trkpt lat="49.60661" lon="3.50832">
        <ele>91.65</ele>
        <time>2022-04-25T12:13:03.698Z</time>
      </trkpt>
      <trkpt lat="49.60672" lon="3.50832">
        <ele>91.65</ele>
        <time>2022-04-25T12:13:13.000Z</time>
      </trkpt>
      <trkpt lat="49.60683" lon="3.50828">
        <ele>92.75</ele>
        <time>2022-04-25T12:13:22.786Z</time>
      </trkpt>
      <trkpt lat="49.60693" lon="3.50824">
        <ele>92.75</ele>
        <time>2022-04-25T12:13:32.000Z</time>
      </trkpt>
      <trkpt lat="49.60703" lon="3.50828">
        <ele>90.85</ele>
        <time>2022-04-25T12:13:41.422Z</time>
      </trkpt>
      <trkpt lat="49.60711" lon="3.5082">
        <ele>91.65</ele>
        <time>2022-04-25T12:13:50.785Z</time>
      </trkpt>
      <trkpt lat="49.60714" lon="3.50803">
        <ele>91.15</ele>
        <time>2022-04-25T12:14:00.000Z</time>
      </trkpt>
      <trkpt lat="49.60724" lon="3.50801">
        <ele>90.9</ele>
        <time>2022-04-25T12:14:09.824Z</time>
      </trkpt>
      <trkpt lat="49.60733" lon="3.50802">
        <ele>91.42</ele>
        <time>2022-04-25T12:14:20.000Z</time>
      </trkpt>
      <trkpt lat="49.60742" lon="3.50797">
        <ele>92.15</ele>
        <time>2022-04-25T12:14:29.725Z</time>
      </trkpt>
      <trkpt lat="49.6075" lon="3.50793">
        <ele>92.15</ele>
        <time>2022-04-25T12:14:39.000Z</time>
      </trkpt>
      <trkpt lat="49.60757" lon="3.50777">
        <ele>92.85</ele>
        <time>2022-04-25T12:14:48.581Z</time>
      </trkpt>
      <trkpt lat="49.60766" lon="3.5076">
        <ele>92.85</ele>
        <time>2022-04-25T12:14:57.848Z</time>
      </trkpt>
      <trkpt lat="49.60776" lon="3.50744">
        <ele>92.85</ele>
        <time>2022-04-25T12:15:07.000Z</time>
      </trkpt>
      <trkpt lat="49.60787" lon="3.50736">
        <ele>92.85</ele>
        <time>2022-04-25T12:15:16.508Z</time>
      </trkpt>
      <trkpt lat="49.60794" lon="3.50726">
        <ele>92.85</ele>
        <time>2022-04-25T12:15:26.000Z</time>
      </trkpt>
      <trkpt lat="49.60799" lon="3.50716">
        <ele>93.63</ele>
        <time>2022-04-25T12:15:35.041Z</time>
      </trkpt>
      <trkpt lat="49.60808" lon="3.5071">
        <ele>93.65</ele>
        <time>2022-04-25T12:15:44.181Z</time>
      </trkpt>
      <trkpt lat="49.60814" lon="3.50704">
        <ele>93.65</ele>
        <time>2022-04-25T12:15:53.382Z</time>
      </trkpt>
      <trkpt lat="49.60822" lon="3.50698">
        <ele>93.65</ele>
        <time>2022-04-25T12:16:02.783Z</time>
      </trkpt>
      <trkpt lat="49.60829" lon="3.50693">
        <ele>93.65</ele>
        <time>2022-04-25T12:16:12.102Z</time>
      </trkpt>
      <trkpt lat="49.60843" lon="3.50686">
        <ele>95.12</ele>
        <time>2022-04-25T12:16:21.462Z</time>
      </trkpt>
      <trkpt lat="49.60856" lon="3.50679">
        <ele>95.35</ele>
        <time>2022-04-25T12:16:31.000Z</time>
      </trkpt>
      <trkpt lat="49.60867" lon="3.5067">
        <ele>95.35</ele>
        <time>2022-04-25T12:16:40.363Z</time>
      </trkpt>
      <trkpt lat="49.60876" lon="3.50661">
        <ele>95.35</ele>
        <time>2022-04-25T12:16:50.000Z</time>
      </trkpt>
      <trkpt lat="49.60883" lon="3.5065">
        <ele>95.35</ele>
        <time>2022-04-25T12:16:59.381Z</time>
      </trkpt>
      <trkpt lat="49.60892" lon="3.50643">
        <ele>95.35</ele>
        <time>2022-04-25T12:17:08.845Z</time>
      </trkpt>
      <trkpt lat="49.609" lon="3.50632">
        <ele>95.35</ele>
        <time>2022-04-25T12:17:18.262Z</time>
      </trkpt>
      <trkpt lat="49.60907" lon="3.50623">
        <ele>96.94</ele>
        <time>2022-04-25T12:17:27.643Z</time>
      </trkpt>
      <trkpt lat="49.60915" lon="3.50623">
        <ele>96.95</ele>
        <time>2022-04-25T12:17:36.763Z</time>
      </trkpt>
      <trkpt lat="49.60923" lon="3.50615">
        <ele>97.15</ele>
        <time>2022-04-25T12:17:46.000Z</time>
      </trkpt>
      <trkpt lat="49.6093" lon="3.50607">
        <ele>95.85</ele>
        <time>2022-04-25T12:17:55.863Z</time>
      </trkpt>
      <trkpt lat="49.60942" lon="3.50601">
        <ele>95.85</ele>
        <time>2022-04-25T12:18:05.221Z</time>
      </trkpt>
      <trkpt lat="49.60945" lon="3.50584">
        <ele>95.38</ele>
        <time>2022-04-25T12:18:14.383Z</time>
      </trkpt>
      <trkpt lat="49.60945" lon="3.50567">
        <ele>96.95</ele>
        <time>2022-04-25T12:18:23.763Z</time>
      </trkpt>
      <trkpt lat="49.60956" lon="3.50566">
        <ele>96.95</ele>
        <time>2022-04-25T12:18:33.155Z</time>
      </trkpt>
      <trkpt lat="49.60961" lon="3.50567">
        <ele>96.95</ele>
        <time>2022-04-25T12:18:42.203Z</time>
      </trkpt>
      <trkpt lat="49.60967" lon="3.50559">
        <ele>96.95</ele>
        <time>2022-04-25T12:18:51.763Z</time>
      </trkpt>
      <trkpt lat="49.60971" lon="3.50557">
        <ele>96.95</ele>
        <time>2022-04-25T12:19:01.222Z</time>
      </trkpt>
      <trkpt lat="49.60984" lon="3.50547">
        <ele>96.95</ele>
        <time>2022-04-25T12:19:10.542Z</time>
      </trkpt>
      <trkpt lat="49.60994" lon="3.50544">
        <ele>96.95</ele>
        <time>2022-04-25T12:19:20.042Z</time>
      </trkpt>
      <trkpt lat="49.61007" lon="3.50537">
        <ele>96.95</ele>
        <time>2022-04-25T12:19:29.481Z</time>
      </trkpt>
      <trkpt lat="49.61021" lon="3.50532">
        <ele>96.95</ele>
        <time>2022-04-25T12:19:38.503Z</time>
      </trkpt>
      <trkpt lat="49.61031" lon="3.50526">
        <ele>96.95</ele>
        <time>2022-04-25T12:19:47.583Z</time>
      </trkpt>
      <trkpt lat="49.61042" lon="3.50522">
        <ele>96.95</ele>
        <time>2022-04-25T12:19:57.662Z</time>
      </trkpt>
      <trkpt lat="49.61052" lon="3.50515">
        <ele>96.95</ele>
        <time>2022-04-25T12:20:07.202Z</time>
      </trkpt>
      <trkpt lat="49.61063" lon="3.50508">
        <ele>110.18</ele>
        <time>2022-04-25T12:20:16.561Z</time>
      </trkpt>
      <trkpt lat="49.61075" lon="3.505">
        <ele>110.16</ele>
        <time>2022-04-25T12:20:25.982Z</time>
      </trkpt>
      <trkpt lat="49.61085" lon="3.50494">
        <ele>110.3</ele>
        <time>2022-04-25T12:20:35.000Z</time>
      </trkpt>
      <trkpt lat="49.61096" lon="3.50487">
        <ele>110.58</ele>
        <time>2022-04-25T12:20:44.442Z</time>
      </trkpt>
      <trkpt lat="49.61107" lon="3.5048">
        <ele>110.48</ele>
        <time>2022-04-25T12:20:54.000Z</time>
      </trkpt>
      <trkpt lat="49.61117" lon="3.50471">
        <ele>109.72</ele>
        <time>2022-04-25T12:21:03.341Z</time>
      </trkpt>
      <trkpt lat="49.61129" lon="3.50461">
        <ele>109.08</ele>
        <time>2022-04-25T12:21:12.621Z</time>
      </trkpt>
      <trkpt lat="49.61139" lon="3.5045">
        <ele>108.8</ele>
        <time>2022-04-25T12:21:22.000Z</time>
      </trkpt>
      <trkpt lat="49.61145" lon="3.50448">
        <ele>108.36</ele>
        <time>2022-04-25T12:21:31.321Z</time>
      </trkpt>
      <trkpt lat="49.61152" lon="3.5045">
        <ele>107.63</ele>
        <time>2022-04-25T12:21:40.762Z</time>
      </trkpt>
      <trkpt lat="49.6116" lon="3.50455">
        <ele>106.96</ele>
        <time>2022-04-25T12:21:50.000Z</time>
      </trkpt>
      <trkpt lat="49.61169" lon="3.50461">
        <ele>106.49</ele>
        <time>2022-04-25T12:21:59.464Z</time>
      </trkpt>
      <trkpt lat="49.61177" lon="3.50463">
        <ele>106.21</ele>
        <time>2022-04-25T12:22:08.702Z</time>
      </trkpt>
      <trkpt lat="49.61189" lon="3.50468">
        <ele>106.23</ele>
        <time>2022-04-25T12:22:17.947Z</time>
      </trkpt>
      <trkpt lat="49.61207" lon="3.50471">
        <ele>106.5</ele>
        <time>2022-04-25T12:22:27.321Z</time>
      </trkpt>
      <trkpt lat="49.61221" lon="3.50475">
        <ele>106.72</ele>
        <time>2022-04-25T12:22:36.842Z</time>
      </trkpt>
      <trkpt lat="49.61234" lon="3.50479">
        <ele>106.76</ele>
        <time>2022-04-25T12:22:46.163Z</time>
      </trkpt>
      <trkpt lat="49.61243" lon="3.50484">
        <ele>106.98</ele>
        <time>2022-04-25T12:22:55.622Z</time>
      </trkpt>
      <trkpt lat="49.61251" lon="3.5049">
        <ele>107.18</ele>
        <time>2022-04-25T12:23:05.062Z</time>
      </trkpt>
      <trkpt lat="49.6126" lon="3.50494">
        <ele>107.77</ele>
        <time>2022-04-25T12:23:14.102Z</time>
      </trkpt>
      <trkpt lat="49.61271" lon="3.50498">
        <ele>108.67</ele>
        <time>2022-04-25T12:23:23.153Z</time>
      </trkpt>
      <trkpt lat="49.61284" lon="3.505">
        <ele>109.16</ele>
        <time>2022-04-25T12:23:32.682Z</time>
      </trkpt>
      <trkpt lat="49.61297" lon="3.50498">
        <ele>109.43</ele>
        <time>2022-04-25T12:23:42.006Z</time>
      </trkpt>
      <trkpt lat="49.61306" lon="3.50499">
        <ele>109.6</ele>
        <time>2022-04-25T12:23:51.467Z</time>
      </trkpt>
      <trkpt lat="49.61316" lon="3.50502">
        <ele>109.77</ele>
        <time>2022-04-25T12:24:00.507Z</time>
      </trkpt>
      <trkpt lat="49.61327" lon="3.50501">
        <ele>109.82</ele>
        <time>2022-04-25T12:24:10.000Z</time>
      </trkpt>
      <trkpt lat="49.61335" lon="3.50496">
        <ele>109.42</ele>
        <time>2022-04-25T12:24:19.538Z</time>
      </trkpt>
      <trkpt lat="49.61342" lon="3.50495">
        <ele>108.62</ele>
        <time>2022-04-25T12:24:28.624Z</time>
      </trkpt>
      <trkpt lat="49.61355" lon="3.50495">
        <ele>107.49</ele>
        <time>2022-04-25T12:24:38.703Z</time>
      </trkpt>
      <trkpt lat="49.61361" lon="3.50496">
        <ele>106.22</ele>
        <time>2022-04-25T12:24:48.182Z</time>
      </trkpt>
      <trkpt lat="49.61374" lon="3.50497">
        <ele>105.45</ele>
        <time>2022-04-25T12:24:57.263Z</time>
      </trkpt>
      <trkpt lat="49.61382" lon="3.50496">
        <ele>104.76</ele>
        <time>2022-04-25T12:25:06.404Z</time>
      </trkpt>
      <trkpt lat="49.61395" lon="3.50496">
        <ele>104.14</ele>
        <time>2022-04-25T12:25:16.000Z</time>
      </trkpt>
      <trkpt lat="49.61411" lon="3.50494">
        <ele>104.98</ele>
        <time>2022-04-25T12:25:25.283Z</time>
      </trkpt>
      <trkpt lat="49.61427" lon="3.50492">
        <ele>105.49</ele>
        <time>2022-04-25T12:25:34.646Z</time>
      </trkpt>
      <trkpt lat="49.61437" lon="3.50493">
        <ele>105.73</ele>
        <time>2022-04-25T12:25:44.603Z</time>
      </trkpt>
      <trkpt lat="49.61449" lon="3.50494">
        <ele>105.75</ele>
        <time>2022-04-25T12:25:53.684Z</time>
      </trkpt>
      <trkpt lat="49.6146" lon="3.50495">
        <ele>105.18</ele>
        <time>2022-04-25T12:26:03.042Z</time>
      </trkpt>
      <trkpt lat="49.6147" lon="3.50495">
        <ele>104.09</ele>
        <time>2022-04-25T12:26:12.563Z</time>
      </trkpt>
      <trkpt lat="49.61482" lon="3.50492">
        <ele>103.31</ele>
        <time>2022-04-25T12:26:21.583Z</time>
      </trkpt>
      <trkpt lat="49.61495" lon="3.50487">
        <ele>102.32</ele>
        <time>2022-04-25T12:26:31.000Z</time>
      </trkpt>
      <trkpt lat="49.61506" lon="3.50485">
        <ele>101.49</ele>
        <time>2022-04-25T12:26:40.403Z</time>
      </trkpt>
      <trkpt lat="49.61515" lon="3.50483">
        <ele>100.98</ele>
        <time>2022-04-25T12:26:50.000Z</time>
      </trkpt>
      <trkpt lat="49.61524" lon="3.5048">
        <ele>100.06</ele>
        <time>2022-04-25T12:27:00.000Z</time>
      </trkpt>
      <trkpt lat="49.61531" lon="3.50477">
        <ele>98.66</ele>
        <time>2022-04-25T12:27:09.603Z</time>
      </trkpt>
      <trkpt lat="49.61542" lon="3.50475">
        <ele>97.23</ele>
        <time>2022-04-25T12:27:19.104Z</time>
      </trkpt>
      <trkpt lat="49.61555" lon="3.50474">
        <ele>96.48</ele>
        <time>2022-04-25T12:27:28.383Z</time>
      </trkpt>
      <trkpt lat="49.61568" lon="3.50471">
        <ele>96.6</ele>
        <time>2022-04-25T12:27:37.384Z</time>
      </trkpt>
      <trkpt lat="49.61582" lon="3.50468">
        <ele>96.24</ele>
        <time>2022-04-25T12:27:46.864Z</time>
      </trkpt>
      <trkpt lat="49.61592" lon="3.50465">
        <ele>94.46</ele>
        <time>2022-04-25T12:27:56.203Z</time>
      </trkpt>
      <trkpt lat="49.61596" lon="3.5046">
        <ele>93.01</ele>
        <time>2022-04-25T12:28:05.644Z</time>
      </trkpt>
      <trkpt lat="49.61604" lon="3.50455">
        <ele>92.71</ele>
        <time>2022-04-25T12:28:15.164Z</time>
      </trkpt>
      <trkpt lat="49.61614" lon="3.50452">
        <ele>93.59</ele>
        <time>2022-04-25T12:28:24.182Z</time>
      </trkpt>
      <trkpt lat="49.61627" lon="3.50447">
        <ele>94.38</ele>
        <time>2022-04-25T12:28:34.000Z</time>
      </trkpt>
      <trkpt lat="49.61638" lon="3.50436">
        <ele>94.25</ele>
        <time>2022-04-25T12:28:43.642Z</time>
      </trkpt>
      <trkpt lat="49.61647" lon="3.50423">
        <ele>93.42</ele>
        <time>2022-04-25T12:28:52.643Z</time>
      </trkpt>
      <trkpt lat="49.61656" lon="3.50412">
        <ele>93.35</ele>
        <time>2022-04-25T12:29:02.004Z</time>
      </trkpt>
      <trkpt lat="49.61665" lon="3.50408">
        <ele>93.33</ele>
        <time>2022-04-25T12:29:11.543Z</time>
      </trkpt>
      <trkpt lat="49.61674" lon="3.50403">
        <ele>93.94</ele>
        <time>2022-04-25T12:29:20.803Z</time>
      </trkpt>
      <trkpt lat="49.61693" lon="3.50383">
        <ele>95.13</ele>
        <time>2022-04-25T12:29:30.128Z</time>
      </trkpt>
      <trkpt lat="49.61707" lon="3.50367">
        <ele>96.62</ele>
        <time>2022-04-25T12:29:39.608Z</time>
      </trkpt>
      <trkpt lat="49.61711" lon="3.50357">
        <ele>98.33</ele>
        <time>2022-04-25T12:29:49.000Z</time>
      </trkpt>
      <trkpt lat="49.61712" lon="3.50356">
        <ele>99.59</ele>
        <time>2022-04-25T12:29:58.367Z</time>
      </trkpt>
      <trkpt lat="49.6172" lon="3.50343">
        <ele>100.93</ele>
        <time>2022-04-25T12:30:07.686Z</time>
      </trkpt>
      <trkpt lat="49.6173" lon="3.50335">
        <ele>102.34</ele>
        <time>2022-04-25T12:30:17.139Z</time>
      </trkpt>
      <trkpt lat="49.61743" lon="3.50327">
        <ele>103.67</ele>
        <time>2022-04-25T12:30:26.607Z</time>
      </trkpt>
      <trkpt lat="49.6175" lon="3.50302">
        <ele>105.09</ele>
        <time>2022-04-25T12:30:36.101Z</time>
      </trkpt>
      <trkpt lat="49.61755" lon="3.5029">
        <ele>106.49</ele>
        <time>2022-04-25T12:30:45.401Z</time>
      </trkpt>
      <trkpt lat="49.61765" lon="3.50279">
        <ele>107.78</ele>
        <time>2022-04-25T12:30:55.000Z</time>
      </trkpt>
      <trkpt lat="49.61774" lon="3.50272">
        <ele>108.87</ele>
        <time>2022-04-25T12:31:04.242Z</time>
      </trkpt>
      <trkpt lat="49.61785" lon="3.50268">
        <ele>109.5</ele>
        <time>2022-04-25T12:31:13.322Z</time>
      </trkpt>
      <trkpt lat="49.61792" lon="3.50258">
        <ele>110.26</ele>
        <time>2022-04-25T12:31:22.742Z</time>
      </trkpt>
      <trkpt lat="49.61798" lon="3.50238">
        <ele>111.25</ele>
        <time>2022-04-25T12:31:31.762Z</time>
      </trkpt>
      <trkpt lat="49.61807" lon="3.50224">
        <ele>112.3</ele>
        <time>2022-04-25T12:31:41.602Z</time>
      </trkpt>
      <trkpt lat="49.61814" lon="3.50212">
        <ele>113.21</ele>
        <time>2022-04-25T12:31:50.682Z</time>
      </trkpt>
      <trkpt lat="49.61819" lon="3.50201">
        <ele>113.9</ele>
        <time>2022-04-25T12:32:00.166Z</time>
      </trkpt>
      <trkpt lat="49.61828" lon="3.50195">
        <ele>114.23</ele>
        <time>2022-04-25T12:32:09.844Z</time>
      </trkpt>
      <trkpt lat="49.61837" lon="3.50188">
        <ele>114.32</ele>
        <time>2022-04-25T12:32:19.022Z</time>
      </trkpt>
      <trkpt lat="49.61847" lon="3.50183">
        <ele>114.07</ele>
        <time>2022-04-25T12:32:28.541Z</time>
      </trkpt>
      <trkpt lat="49.61855" lon="3.50178">
        <ele>113.96</ele>
        <time>2022-04-25T12:32:38.000Z</time>
      </trkpt>
      <trkpt lat="49.61865" lon="3.5017">
        <ele>113.95</ele>
        <time>2022-04-25T12:32:47.184Z</time>
      </trkpt>
      <trkpt lat="49.61874" lon="3.50162">
        <ele>114.03</ele>
        <time>2022-04-25T12:32:56.203Z</time>
      </trkpt>
      <trkpt lat="49.61882" lon="3.50157">
        <ele>114.13</ele>
        <time>2022-04-25T12:33:06.261Z</time>
      </trkpt>
      <trkpt lat="49.6189" lon="3.5015">
        <ele>114.31</ele>
        <time>2022-04-25T12:33:16.000Z</time>
      </trkpt>
      <trkpt lat="49.61896" lon="3.50145">
        <ele>114.49</ele>
        <time>2022-04-25T12:33:25.023Z</time>
      </trkpt>
      <trkpt lat="49.61902" lon="3.50126">
        <ele>114.47</ele>
        <time>2022-04-25T12:33:34.261Z</time>
      </trkpt>
      <trkpt lat="49.61911" lon="3.50116">
        <ele>113.59</ele>
        <time>2022-04-25T12:33:43.763Z</time>
      </trkpt>
      <trkpt lat="49.61922" lon="3.5011">
        <ele>113.12</ele>
        <time>2022-04-25T12:33:53.201Z</time>
      </trkpt>
      <trkpt lat="49.61933" lon="3.50106">
        <ele>113.31</ele>
        <time>2022-04-25T12:34:02.463Z</time>
      </trkpt>
      <trkpt lat="49.61942" lon="3.50098">
        <ele>113.59</ele>
        <time>2022-04-25T12:34:11.503Z</time>
      </trkpt>
      <trkpt lat="49.61954" lon="3.50087">
        <ele>114.42</ele>
        <time>2022-04-25T12:34:20.522Z</time>
      </trkpt>
      <trkpt lat="49.61965" lon="3.50083">
        <ele>115.25</ele>
        <time>2022-04-25T12:34:30.042Z</time>
      </trkpt>
      <trkpt lat="49.61976" lon="3.50075">
        <ele>115.41</ele>
        <time>2022-04-25T12:34:39.723Z</time>
      </trkpt>
      <trkpt lat="49.61988" lon="3.50068">
        <ele>114.53</ele>
        <time>2022-04-25T12:34:49.102Z</time>
      </trkpt>
      <trkpt lat="49.61997" lon="3.50057">
        <ele>113.01</ele>
        <time>2022-04-25T12:34:58.603Z</time>
      </trkpt>
      <trkpt lat="49.62006" lon="3.50043">
        <ele>111.55</ele>
        <time>2022-04-25T12:35:08.703Z</time>
      </trkpt>
      <trkpt lat="49.62014" lon="3.50037">
        <ele>110.51</ele>
        <time>2022-04-25T12:35:18.282Z</time>
      </trkpt>
      <trkpt lat="49.62022" lon="3.50028">
        <ele>109.77</ele>
        <time>2022-04-25T12:35:28.000Z</time>
      </trkpt>
      <trkpt lat="49.62033" lon="3.50021">
        <ele>109.07</ele>
        <time>2022-04-25T12:35:37.422Z</time>
      </trkpt>
      <trkpt lat="49.62041" lon="3.50014">
        <ele>109.31</ele>
        <time>2022-04-25T12:35:46.884Z</time>
      </trkpt>
      <trkpt lat="49.62045" lon="3.50003">
        <ele>109.97</ele>
        <time>2022-04-25T12:35:56.882Z</time>
      </trkpt>
      <trkpt lat="49.62053" lon="3.49997">
        <ele>110.96</ele>
        <time>2022-04-25T12:36:06.442Z</time>
      </trkpt>
      <trkpt lat="49.62064" lon="3.49996">
        <ele>111.38</ele>
        <time>2022-04-25T12:36:16.000Z</time>
      </trkpt>
      <trkpt lat="49.62074" lon="3.49995">
        <ele>111.2</ele>
        <time>2022-04-25T12:36:25.563Z</time>
      </trkpt>
      <trkpt lat="49.62084" lon="3.49996">
        <ele>110.53</ele>
        <time>2022-04-25T12:36:35.000Z</time>
      </trkpt>
      <trkpt lat="49.62092" lon="3.49996">
        <ele>110.26</ele>
        <time>2022-04-25T12:36:44.642Z</time>
      </trkpt>
      <trkpt lat="49.62105" lon="3.4999">
        <ele>110.25</ele>
        <time>2022-04-25T12:36:54.000Z</time>
      </trkpt>
      <trkpt lat="49.62125" lon="3.49953">
        <ele>110.56</ele>
        <time>2022-04-25T12:37:03.240Z</time>
      </trkpt>
      <trkpt lat="49.6213" lon="3.4995">
        <ele>110.63</ele>
        <time>2022-04-25T12:37:13.000Z</time>
      </trkpt>
      <trkpt lat="49.62135" lon="3.49947">
        <ele>110.76</ele>
        <time>2022-04-25T12:37:22.618Z</time>
      </trkpt>
      <trkpt lat="49.62147" lon="3.49959">
        <ele>110.38</ele>
        <time>2022-04-25T12:37:31.726Z</time>
      </trkpt>
      <trkpt lat="49.62157" lon="3.49957">
        <ele>109.56</ele>
        <time>2022-04-25T12:37:41.246Z</time>
      </trkpt>
      <trkpt lat="49.62176" lon="3.49951">
        <ele>107.6</ele>
        <time>2022-04-25T12:37:50.385Z</time>
      </trkpt>
      <trkpt lat="49.62187" lon="3.49948">
        <ele>106.11</ele>
        <time>2022-04-25T12:37:59.809Z</time>
      </trkpt>
      <trkpt lat="49.62194" lon="3.49944">
        <ele>105.11</ele>
        <time>2022-04-25T12:38:09.000Z</time>
      </trkpt>
      <trkpt lat="49.62198" lon="3.49941">
        <ele>105.1</ele>
        <time>2022-04-25T12:38:18.306Z</time>
      </trkpt>
      <trkpt lat="49.6221" lon="3.4994">
        <ele>105.9</ele>
        <time>2022-04-25T12:38:27.329Z</time>
      </trkpt>
      <trkpt lat="49.62221" lon="3.49938">
        <ele>106.61</ele>
        <time>2022-04-25T12:38:36.461Z</time>
      </trkpt>
      <trkpt lat="49.6223" lon="3.49942">
        <ele>107.24</ele>
        <time>2022-04-25T12:38:45.501Z</time>
      </trkpt>
      <trkpt lat="49.62237" lon="3.49945">
        <ele>108.55</ele>
        <time>2022-04-25T12:38:55.000Z</time>
      </trkpt>
      <trkpt lat="49.62239" lon="3.49949">
        <ele>109.33</ele>
        <time>2022-04-25T12:39:04.542Z</time>
      </trkpt>
      <trkpt lat="49.62242" lon="3.49953">
        <ele>109.2</ele>
        <time>2022-04-25T12:39:14.000Z</time>
      </trkpt>
      <trkpt lat="49.62243" lon="3.49956">
        <ele>108.74</ele>
        <time>2022-04-25T12:39:24.000Z</time>
      </trkpt>
      <trkpt lat="49.62246" lon="3.49957">
        <ele>107.73</ele>
        <time>2022-04-25T12:39:34.000Z</time>
      </trkpt>
      <trkpt lat="49.6225" lon="3.49962">
        <ele>104.59</ele>
        <time>2022-04-25T12:40:08.000Z</time>
      </trkpt>
      <trkpt lat="49.62252" lon="3.49965">
        <ele>103.02</ele>
        <time>2022-04-25T12:40:18.000Z</time>
      </trkpt>
      <trkpt lat="49.62256" lon="3.49959">
        <ele>101.37</ele>
        <time>2022-04-25T12:40:28.000Z</time>
      </trkpt>
      <trkpt lat="49.62254" lon="3.49959">
        <ele>99.89</ele>
        <time>2022-04-25T12:40:38.000Z</time>
      </trkpt>
      <trkpt lat="49.62255" lon="3.49951">
        <ele>98.61</ele>
        <time>2022-04-25T12:40:48.000Z</time>
      </trkpt>
      <trkpt lat="49.62253" lon="3.49955">
        <ele>97.64</ele>
        <time>2022-04-25T12:40:58.000Z</time>
      </trkpt>
      <trkpt lat="49.62252" lon="3.49954">
        <ele>96.7</ele>
        <time>2022-04-25T12:41:10.000Z</time>
      </trkpt>
      <trkpt lat="49.62252" lon="3.49951">
        <ele>95.01</ele>
        <time>2022-04-25T12:41:41.000Z</time>
      </trkpt>
      <trkpt lat="49.62253" lon="3.49948">
        <ele>94.85</ele>
        <time>2022-04-25T12:41:51.000Z</time>
      </trkpt>
      <trkpt lat="49.62253" lon="3.4995">
        <ele>92.97</ele>
        <time>2022-04-25T12:42:04.000Z</time>
      </trkpt>
      <trkpt lat="49.62249" lon="3.49954">
        <ele>91.91</ele>
        <time>2022-04-25T12:42:14.000Z</time>
      </trkpt>
      <trkpt lat="49.62248" lon="3.49954">
        <ele>91.45</ele>
        <time>2022-04-25T12:42:30.000Z</time>
      </trkpt>
      <trkpt lat="49.62247" lon="3.49964">
        <ele>90.97</ele>
        <time>2022-04-25T12:42:40.000Z</time>
      </trkpt>
      <trkpt lat="49.62247" lon="3.49972">
        <ele>90.2</ele>
        <time>2022-04-25T12:42:50.000Z</time>
      </trkpt>
      <trkpt lat="49.62251" lon="3.49993">
        <ele>90.08</ele>
        <time>2022-04-25T12:43:00.000Z</time>
      </trkpt>
      <trkpt lat="49.6225" lon="3.50011">
        <ele>91.2</ele>
        <time>2022-04-25T12:43:10.000Z</time>
      </trkpt>
      <trkpt lat="49.62252" lon="3.50026">
        <ele>93.83</ele>
        <time>2022-04-25T12:43:20.000Z</time>
      </trkpt>
      <trkpt lat="49.6225" lon="3.50036">
        <ele>96.75</ele>
        <time>2022-04-25T12:43:30.000Z</time>
      </trkpt>
      <trkpt lat="49.62249" lon="3.50059">
        <ele>98.72</ele>
        <time>2022-04-25T12:43:39.701Z</time>
      </trkpt>
      <trkpt lat="49.62248" lon="3.50076">
        <ele>100.01</ele>
        <time>2022-04-25T12:43:49.000Z</time>
      </trkpt>
      <trkpt lat="49.62243" lon="3.50092">
        <ele>100.84</ele>
        <time>2022-04-25T12:43:58.566Z</time>
      </trkpt>
      <trkpt lat="49.62239" lon="3.50102">
        <ele>101.8</ele>
        <time>2022-04-25T12:44:07.869Z</time>
      </trkpt>
      <trkpt lat="49.6224" lon="3.50122">
        <ele>103.29</ele>
        <time>2022-04-25T12:44:17.000Z</time>
      </trkpt>
      <trkpt lat="49.62244" lon="3.50143">
        <ele>105.01</ele>
        <time>2022-04-25T12:44:27.000Z</time>
      </trkpt>
      <trkpt lat="49.62246" lon="3.5016">
        <ele>107.2</ele>
        <time>2022-04-25T12:44:37.000Z</time>
      </trkpt>
      <trkpt lat="49.6225" lon="3.50174">
        <ele>109.38</ele>
        <time>2022-04-25T12:44:46.569Z</time>
      </trkpt>
      <trkpt lat="49.62254" lon="3.50191">
        <ele>111.02</ele>
        <time>2022-04-25T12:44:55.571Z</time>
      </trkpt>
      <trkpt lat="49.62251" lon="3.50207">
        <ele>112.64</ele>
        <time>2022-04-25T12:45:05.748Z</time>
      </trkpt>
      <trkpt lat="49.62248" lon="3.5022">
        <ele>113.58</ele>
        <time>2022-04-25T12:45:15.000Z</time>
      </trkpt>
      <trkpt lat="49.62241" lon="3.50235">
        <ele>114.7</ele>
        <time>2022-04-25T12:45:25.000Z</time>
      </trkpt>
      <trkpt lat="49.62237" lon="3.5025">
        <ele>115.9</ele>
        <time>2022-04-25T12:45:34.647Z</time>
      </trkpt>
      <trkpt lat="49.6224" lon="3.50262">
        <ele>117.33</ele>
        <time>2022-04-25T12:45:43.669Z</time>
      </trkpt>
      <trkpt lat="49.62253" lon="3.50279">
        <ele>118.2</ele>
        <time>2022-04-25T12:45:53.000Z</time>
      </trkpt>
      <trkpt lat="49.62249" lon="3.50309">
        <ele>117.1</ele>
        <time>2022-04-25T12:46:03.000Z</time>
      </trkpt>
      <trkpt lat="49.62245" lon="3.50318">
        <ele>115.7</ele>
        <time>2022-04-25T12:46:12.522Z</time>
      </trkpt>
      <trkpt lat="49.62246" lon="3.50334">
        <ele>115.3</ele>
        <time>2022-04-25T12:46:21.887Z</time>
      </trkpt>
      <trkpt lat="49.62249" lon="3.50344">
        <ele>115.67</ele>
        <time>2022-04-25T12:46:31.000Z</time>
      </trkpt>
      <trkpt lat="49.62249" lon="3.50355">
        <ele>115.75</ele>
        <time>2022-04-25T12:46:40.422Z</time>
      </trkpt>
      <trkpt lat="49.6225" lon="3.50375">
        <ele>115.74</ele>
        <time>2022-04-25T12:46:49.675Z</time>
      </trkpt>
      <trkpt lat="49.62251" lon="3.50397">
        <ele>116.41</ele>
        <time>2022-04-25T12:46:59.000Z</time>
      </trkpt>
      <trkpt lat="49.62254" lon="3.50418">
        <ele>117.73</ele>
        <time>2022-04-25T12:47:08.302Z</time>
      </trkpt>
      <trkpt lat="49.62253" lon="3.5043">
        <ele>118.43</ele>
        <time>2022-04-25T12:47:17.562Z</time>
      </trkpt>
      <trkpt lat="49.62251" lon="3.50442">
        <ele>118.02</ele>
        <time>2022-04-25T12:47:26.642Z</time>
      </trkpt>
      <trkpt lat="49.62246" lon="3.50462">
        <ele>116.28</ele>
        <time>2022-04-25T12:47:36.000Z</time>
      </trkpt>
      <trkpt lat="49.62244" lon="3.50485">
        <ele>114.86</ele>
        <time>2022-04-25T12:47:45.424Z</time>
      </trkpt>
      <trkpt lat="49.62239" lon="3.50508">
        <ele>114.08</ele>
        <time>2022-04-25T12:47:55.000Z</time>
      </trkpt>
      <trkpt lat="49.62235" lon="3.50514">
        <ele>113.1</ele>
        <time>2022-04-25T12:48:04.509Z</time>
      </trkpt>
      <trkpt lat="49.62229" lon="3.50533">
        <ele>112.17</ele>
        <time>2022-04-25T12:48:14.000Z</time>
      </trkpt>
      <trkpt lat="49.62235" lon="3.50557">
        <ele>112.41</ele>
        <time>2022-04-25T12:48:24.000Z</time>
      </trkpt>
      <trkpt lat="49.62244" lon="3.5057">
        <ele>113</ele>
        <time>2022-04-25T12:48:34.000Z</time>
      </trkpt>
      <trkpt lat="49.62254" lon="3.5057">
        <ele>113.46</ele>
        <time>2022-04-25T12:48:43.222Z</time>
      </trkpt>
      <trkpt lat="49.62261" lon="3.50582">
        <ele>113.52</ele>
        <time>2022-04-25T12:48:52.842Z</time>
      </trkpt>
      <trkpt lat="49.62267" lon="3.50599">
        <ele>113</ele>
        <time>2022-04-25T12:49:02.023Z</time>
      </trkpt>
      <trkpt lat="49.62269" lon="3.50609">
        <ele>112.57</ele>
        <time>2022-04-25T12:49:11.562Z</time>
      </trkpt>
      <trkpt lat="49.62269" lon="3.50611">
        <ele>112.37</ele>
        <time>2022-04-25T12:49:21.000Z</time>
      </trkpt>
      <trkpt lat="49.62272" lon="3.50625">
        <ele>111.64</ele>
        <time>2022-04-25T12:49:30.682Z</time>
      </trkpt>
      <trkpt lat="49.62275" lon="3.50642">
        <ele>111.62</ele>
        <time>2022-04-25T12:49:40.000Z</time>
      </trkpt>
      <trkpt lat="49.62275" lon="3.50643">
        <ele>113.22</ele>
        <time>2022-04-25T12:49:56.243Z</time>
      </trkpt>
      <trkpt lat="49.62283" lon="3.50629">
        <ele>115.73</ele>
        <time>2022-04-25T12:50:06.000Z</time>
      </trkpt>
      <trkpt lat="49.62284" lon="3.50625">
        <ele>116.22</ele>
        <time>2022-04-25T12:50:16.000Z</time>
      </trkpt>
      <trkpt lat="49.62282" lon="3.50621">
        <ele>115.82</ele>
        <time>2022-04-25T12:50:45.000Z</time>
      </trkpt>
      <trkpt lat="49.62284" lon="3.50619">
        <ele>116.1</ele>
        <time>2022-04-25T12:50:55.000Z</time>
      </trkpt>
      <trkpt lat="49.62284" lon="3.50621">
        <ele>116.39</ele>
        <time>2022-04-25T12:51:05.000Z</time>
      </trkpt>
      <trkpt lat="49.62282" lon="3.50628">
        <ele>116.81</ele>
        <time>2022-04-25T12:51:15.000Z</time>
      </trkpt>
      <trkpt lat="49.62281" lon="3.50628">
        <ele>117.8</ele>
        <time>2022-04-25T12:51:31.605Z</time>
      </trkpt>
      <trkpt lat="49.62285" lon="3.50626">
        <ele>118.02</ele>
        <time>2022-04-25T12:51:41.000Z</time>
      </trkpt>
      <trkpt lat="49.62286" lon="3.50626">
        <ele>118.51</ele>
        <time>2022-04-25T12:51:52.000Z</time>
      </trkpt>
      <trkpt lat="49.62288" lon="3.50629">
        <ele>118.83</ele>
        <time>2022-04-25T12:52:02.000Z</time>
      </trkpt>
      <trkpt lat="49.62285" lon="3.50626">
        <ele>119.42</ele>
        <time>2022-04-25T12:52:11.685Z</time>
      </trkpt>
      <trkpt lat="49.62283" lon="3.50621">
        <ele>119.9</ele>
        <time>2022-04-25T12:52:21.000Z</time>
      </trkpt>
      <trkpt lat="49.62284" lon="3.50622">
        <ele>118.97</ele>
        <time>2022-04-25T12:52:32.000Z</time>
      </trkpt>
      <trkpt lat="49.62286" lon="3.50623">
        <ele>118</ele>
        <time>2022-04-25T12:52:42.000Z</time>
      </trkpt>
      <trkpt lat="49.62287" lon="3.50631">
        <ele>110.98</ele>
        <time>2022-04-25T12:54:00.000Z</time>
      </trkpt>
      <trkpt lat="49.6229" lon="3.50651">
        <ele>109.74</ele>
        <time>2022-04-25T12:54:10.000Z</time>
      </trkpt>
      <trkpt lat="49.62291" lon="3.5064">
        <ele>107.89</ele>
        <time>2022-04-25T12:55:13.000Z</time>
      </trkpt>
      <trkpt lat="49.6229" lon="3.50632">
        <ele>106.83</ele>
        <time>2022-04-25T12:55:23.000Z</time>
      </trkpt>
      <trkpt lat="49.62287" lon="3.5063">
        <ele>106.13</ele>
        <time>2022-04-25T12:55:33.000Z</time>
      </trkpt>
      <trkpt lat="49.62282" lon="3.50626">
        <ele>106.15</ele>
        <time>2022-04-25T12:55:43.000Z</time>
      </trkpt>
      <trkpt lat="49.62281" lon="3.50627">
        <ele>106.82</ele>
        <time>2022-04-25T12:55:53.000Z</time>
      </trkpt>
      <trkpt lat="49.62279" lon="3.50629">
        <ele>106.96</ele>
        <time>2022-04-25T12:56:03.000Z</time>
      </trkpt>
      <trkpt lat="49.62282" lon="3.5063">
        <ele>115.28</ele>
        <time>2022-04-25T12:58:56.000Z</time>
      </trkpt>
      <trkpt lat="49.6229" lon="3.50626">
        <ele>114.22</ele>
        <time>2022-04-25T12:59:06.000Z</time>
      </trkpt>
      <trkpt lat="49.62286" lon="3.50627">
        <ele>113.49</ele>
        <time>2022-04-25T12:59:16.000Z</time>
      </trkpt>
      <trkpt lat="49.62283" lon="3.50626">
        <ele>113.27</ele>
        <time>2022-04-25T12:59:26.000Z</time>
      </trkpt>
      <trkpt lat="49.62286" lon="3.50622">
        <ele>113.34</ele>
        <time>2022-04-25T12:59:36.000Z</time>
      </trkpt>
      <trkpt lat="49.62285" lon="3.50623">
        <ele>113.35</ele>
        <time>2022-04-25T12:59:46.000Z</time>
      </trkpt>
      <trkpt lat="49.62286" lon="3.50622">
        <ele>114.88</ele>
        <time>2022-04-25T12:59:56.000Z</time>
      </trkpt>
      <trkpt lat="49.62284" lon="3.50622">
        <ele>114.34</ele>
        <time>2022-04-25T13:00:07.000Z</time>
      </trkpt>
      <trkpt lat="49.62282" lon="3.50625">
        <ele>112.9</ele>
        <time>2022-04-25T13:00:17.000Z</time>
      </trkpt>
      <trkpt lat="49.62283" lon="3.50626">
        <ele>111.37</ele>
        <time>2022-04-25T13:00:27.000Z</time>
      </trkpt>
      <trkpt lat="49.62284" lon="3.50626">
        <ele>109.99</ele>
        <time>2022-04-25T13:00:37.000Z</time>
      </trkpt>
      <trkpt lat="49.62284" lon="3.50627">
        <ele>104.57</ele>
        <time>2022-04-25T13:02:02.526Z</time>
      </trkpt>
      <trkpt lat="49.62282" lon="3.50632">
        <ele>104.34</ele>
        <time>2022-04-25T13:02:12.000Z</time>
      </trkpt>
      <trkpt lat="49.6228" lon="3.50632">
        <ele>104.62</ele>
        <time>2022-04-25T13:02:22.000Z</time>
      </trkpt>
      <trkpt lat="49.62278" lon="3.50636">
        <ele>105.96</ele>
        <time>2022-04-25T13:02:32.000Z</time>
      </trkpt>
      <trkpt lat="49.62277" lon="3.5063">
        <ele>107.25</ele>
        <time>2022-04-25T13:02:45.000Z</time>
      </trkpt>
      <trkpt lat="49.62277" lon="3.50624">
        <ele>108.12</ele>
        <time>2022-04-25T13:02:55.000Z</time>
      </trkpt>
      <trkpt lat="49.62278" lon="3.50622">
        <ele>108.96</ele>
        <time>2022-04-25T13:03:05.000Z</time>
      </trkpt>
      <trkpt lat="49.62282" lon="3.50621">
        <ele>109.89</ele>
        <time>2022-04-25T13:03:15.000Z</time>
      </trkpt>
      <trkpt lat="49.62284" lon="3.50622">
        <ele>111.63</ele>
        <time>2022-04-25T13:03:25.000Z</time>
      </trkpt>
      <trkpt lat="49.62291" lon="3.50618">
        <ele>113.58</ele>
        <time>2022-04-25T13:03:35.000Z</time>
      </trkpt>
      <trkpt lat="49.62293" lon="3.50623">
        <ele>115.16</ele>
        <time>2022-04-25T13:03:45.000Z</time>
      </trkpt>
      <trkpt lat="49.62291" lon="3.50628">
        <ele>116.35</ele>
        <time>2022-04-25T13:03:55.000Z</time>
      </trkpt>
      <trkpt lat="49.62286" lon="3.50625">
        <ele>117.26</ele>
        <time>2022-04-25T13:04:06.000Z</time>
      </trkpt>
      <trkpt lat="49.62278" lon="3.5064">
        <ele>117</ele>
        <time>2022-04-25T13:04:15.583Z</time>
      </trkpt>
      <trkpt lat="49.62272" lon="3.50645">
        <ele>116.04</ele>
        <time>2022-04-25T13:04:24.842Z</time>
      </trkpt>
      <trkpt lat="49.62262" lon="3.5065">
        <ele>114.44</ele>
        <time>2022-04-25T13:04:34.503Z</time>
      </trkpt>
      <trkpt lat="49.62255" lon="3.50655">
        <ele>113.59</ele>
        <time>2022-04-25T13:04:43.702Z</time>
      </trkpt>
      <trkpt lat="49.62251" lon="3.50656">
        <ele>113.4</ele>
        <time>2022-04-25T13:04:52.742Z</time>
      </trkpt>
      <trkpt lat="49.62243" lon="3.50662">
        <ele>112.92</ele>
        <time>2022-04-25T13:05:02.502Z</time>
      </trkpt>
      <trkpt lat="49.62236" lon="3.50672">
        <ele>111.66</ele>
        <time>2022-04-25T13:05:11.623Z</time>
      </trkpt>
      <trkpt lat="49.62235" lon="3.50685">
        <ele>110.3</ele>
        <time>2022-04-25T13:05:21.703Z</time>
      </trkpt>
      <trkpt lat="49.62238" lon="3.50697">
        <ele>108.8</ele>
        <time>2022-04-25T13:05:31.000Z</time>
      </trkpt>
      <trkpt lat="49.62243" lon="3.50706">
        <ele>107.99</ele>
        <time>2022-04-25T13:05:40.102Z</time>
      </trkpt>
      <trkpt lat="49.62242" lon="3.50721">
        <ele>107.05</ele>
        <time>2022-04-25T13:05:49.782Z</time>
      </trkpt>
      <trkpt lat="49.62243" lon="3.50722">
        <ele>106.74</ele>
        <time>2022-04-25T13:05:59.000Z</time>
      </trkpt>
      <trkpt lat="49.62243" lon="3.50726">
        <ele>106.6</ele>
        <time>2022-04-25T13:06:10.000Z</time>
      </trkpt>
      <trkpt lat="49.62243" lon="3.50734">
        <ele>106.47</ele>
        <time>2022-04-25T13:06:19.624Z</time>
      </trkpt>
      <trkpt lat="49.62241" lon="3.50743">
        <ele>105.67</ele>
        <time>2022-04-25T13:06:29.100Z</time>
      </trkpt>
      <trkpt lat="49.62241" lon="3.5076">
        <ele>104.48</ele>
        <time>2022-04-25T13:06:38.520Z</time>
      </trkpt>
      <trkpt lat="49.62243" lon="3.50769">
        <ele>103.07</ele>
        <time>2022-04-25T13:06:47.937Z</time>
      </trkpt>
      <trkpt lat="49.62247" lon="3.50783">
        <ele>101.81</ele>
        <time>2022-04-25T13:06:57.500Z</time>
      </trkpt>
      <trkpt lat="49.62243" lon="3.508">
        <ele>101.45</ele>
        <time>2022-04-25T13:07:07.541Z</time>
      </trkpt>
      <trkpt lat="49.6224" lon="3.50817">
        <ele>101.34</ele>
        <time>2022-04-25T13:07:17.281Z</time>
      </trkpt>
      <trkpt lat="49.6224" lon="3.50832">
        <ele>101.11</ele>
        <time>2022-04-25T13:07:26.761Z</time>
      </trkpt>
      <trkpt lat="49.62239" lon="3.50847">
        <ele>101.15</ele>
        <time>2022-04-25T13:07:36.000Z</time>
      </trkpt>
      <trkpt lat="49.62238" lon="3.50865">
        <ele>101.35</ele>
        <time>2022-04-25T13:07:45.221Z</time>
      </trkpt>
      <trkpt lat="49.62239" lon="3.50881">
        <ele>101.36</ele>
        <time>2022-04-25T13:07:54.522Z</time>
      </trkpt>
      <trkpt lat="49.62238" lon="3.50898">
        <ele>101.52</ele>
        <time>2022-04-25T13:08:04.000Z</time>
      </trkpt>
      <trkpt lat="49.62236" lon="3.50914">
        <ele>102.4</ele>
        <time>2022-04-25T13:08:13.038Z</time>
      </trkpt>
      <trkpt lat="49.62236" lon="3.5093">
        <ele>103.34</ele>
        <time>2022-04-25T13:08:22.698Z</time>
      </trkpt>
      <trkpt lat="49.62232" lon="3.50947">
        <ele>103.99</ele>
        <time>2022-04-25T13:08:31.818Z</time>
      </trkpt>
      <trkpt lat="49.62231" lon="3.50961">
        <ele>103.97</ele>
        <time>2022-04-25T13:08:40.864Z</time>
      </trkpt>
      <trkpt lat="49.62233" lon="3.50974">
        <ele>103.72</ele>
        <time>2022-04-25T13:08:50.659Z</time>
      </trkpt>
      <trkpt lat="49.62237" lon="3.50994">
        <ele>103.53</ele>
        <time>2022-04-25T13:09:00.317Z</time>
      </trkpt>
      <trkpt lat="49.62238" lon="3.51011">
        <ele>103.51</ele>
        <time>2022-04-25T13:09:09.738Z</time>
      </trkpt>
      <trkpt lat="49.62237" lon="3.51025">
        <ele>102.75</ele>
        <time>2022-04-25T13:09:19.000Z</time>
      </trkpt>
      <trkpt lat="49.62235" lon="3.51047">
        <ele>102.72</ele>
        <time>2022-04-25T13:09:28.657Z</time>
      </trkpt>
      <trkpt lat="49.62235" lon="3.51063">
        <ele>102.67</ele>
        <time>2022-04-25T13:09:38.000Z</time>
      </trkpt>
      <trkpt lat="49.62233" lon="3.51078">
        <ele>102.25</ele>
        <time>2022-04-25T13:09:47.580Z</time>
      </trkpt>
      <trkpt lat="49.62232" lon="3.51093">
        <ele>101.24</ele>
        <time>2022-04-25T13:09:57.000Z</time>
      </trkpt>
      <trkpt lat="49.62231" lon="3.51112">
        <ele>100.6</ele>
        <time>2022-04-25T13:10:06.658Z</time>
      </trkpt>
      <trkpt lat="49.62229" lon="3.51129">
        <ele>100.46</ele>
        <time>2022-04-25T13:10:15.739Z</time>
      </trkpt>
      <trkpt lat="49.62228" lon="3.51145">
        <ele>100.31</ele>
        <time>2022-04-25T13:10:25.037Z</time>
      </trkpt>
      <trkpt lat="49.62229" lon="3.51158">
        <ele>100.07</ele>
        <time>2022-04-25T13:10:34.198Z</time>
      </trkpt>
      <trkpt lat="49.62232" lon="3.51175">
        <ele>99.92</ele>
        <time>2022-04-25T13:10:44.000Z</time>
      </trkpt>
      <trkpt lat="49.62232" lon="3.51193">
        <ele>99.49</ele>
        <time>2022-04-25T13:10:53.279Z</time>
      </trkpt>
      <trkpt lat="49.62231" lon="3.51208">
        <ele>99.18</ele>
        <time>2022-04-25T13:11:02.319Z</time>
      </trkpt>
      <trkpt lat="49.62232" lon="3.51224">
        <ele>98.98</ele>
        <time>2022-04-25T13:11:11.780Z</time>
      </trkpt>
      <trkpt lat="49.62231" lon="3.51241">
        <ele>99.18</ele>
        <time>2022-04-25T13:11:20.818Z</time>
      </trkpt>
      <trkpt lat="49.62231" lon="3.51257">
        <ele>99.51</ele>
        <time>2022-04-25T13:11:30.267Z</time>
      </trkpt>
      <trkpt lat="49.62232" lon="3.51274">
        <ele>99.79</ele>
        <time>2022-04-25T13:11:39.797Z</time>
      </trkpt>
      <trkpt lat="49.62234" lon="3.51288">
        <ele>100.1</ele>
        <time>2022-04-25T13:11:48.818Z</time>
      </trkpt>
      <trkpt lat="49.62235" lon="3.513">
        <ele>100.16</ele>
        <time>2022-04-25T13:11:58.298Z</time>
      </trkpt>
      <trkpt lat="49.62234" lon="3.5131">
        <ele>100.26</ele>
        <time>2022-04-25T13:12:07.999Z</time>
      </trkpt>
      <trkpt lat="49.62235" lon="3.51312">
        <ele>83.29</ele>
        <time>2022-04-25T13:12:17.999Z</time>
      </trkpt>
      <trkpt lat="49.62236" lon="3.51308">
        <ele>83.84</ele>
        <time>2022-04-25T13:12:27.538Z</time>
      </trkpt>
      <trkpt lat="49.62236" lon="3.51302">
        <ele>83.84</ele>
        <time>2022-04-25T13:12:36.999Z</time>
      </trkpt>
      <trkpt lat="49.62234" lon="3.51307">
        <ele>83.84</ele>
        <time>2022-04-25T13:12:59.999Z</time>
      </trkpt>
      <trkpt lat="49.62232" lon="3.51312">
        <ele>83.84</ele>
        <time>2022-04-25T13:13:09.999Z</time>
      </trkpt>
      <trkpt lat="49.62234" lon="3.51311">
        <ele>81.64</ele>
        <time>2022-04-25T13:14:19.999Z</time>
      </trkpt>
      <trkpt lat="49.62236" lon="3.5131">
        <ele>81.64</ele>
        <time>2022-04-25T13:14:29.999Z</time>
      </trkpt>
      <trkpt lat="49.62235" lon="3.5131">
        <ele>81.64</ele>
        <time>2022-04-25T13:14:41.999Z</time>
      </trkpt>
      <trkpt lat="49.62231" lon="3.51313">
        <ele>81.64</ele>
        <time>2022-04-25T13:14:51.238Z</time>
      </trkpt>
      <trkpt lat="49.62226" lon="3.51329">
        <ele>81.64</ele>
        <time>2022-04-25T13:15:00.459Z</time>
      </trkpt>
      <trkpt lat="49.62214" lon="3.51328">
        <ele>81.64</ele>
        <time>2022-04-25T13:15:09.658Z</time>
      </trkpt>
      <trkpt lat="49.62205" lon="3.51316">
        <ele>81.64</ele>
        <time>2022-04-25T13:15:18.999Z</time>
      </trkpt>
      <trkpt lat="49.62194" lon="3.51313">
        <ele>81.64</ele>
        <time>2022-04-25T13:15:28.517Z</time>
      </trkpt>
      <trkpt lat="49.62183" lon="3.5131">
        <ele>81.64</ele>
        <time>2022-04-25T13:15:38.057Z</time>
      </trkpt>
      <trkpt lat="49.62171" lon="3.51309">
        <ele>107.52</ele>
        <time>2022-04-25T13:15:47.798Z</time>
      </trkpt>
      <trkpt lat="49.6216" lon="3.51306">
        <ele>107.14</ele>
        <time>2022-04-25T13:15:57.758Z</time>
      </trkpt>
      <trkpt lat="49.62146" lon="3.51306">
        <ele>106.29</ele>
        <time>2022-04-25T13:16:06.781Z</time>
      </trkpt>
      <trkpt lat="49.62133" lon="3.51304">
        <ele>105.7</ele>
        <time>2022-04-25T13:16:15.797Z</time>
      </trkpt>
      <trkpt lat="49.62129" lon="3.5131">
        <ele>105.14</ele>
        <time>2022-04-25T13:16:25.017Z</time>
      </trkpt>
      <trkpt lat="49.62118" lon="3.51303">
        <ele>104.39</ele>
        <time>2022-04-25T13:16:34.678Z</time>
      </trkpt>
      <trkpt lat="49.62109" lon="3.51305">
        <ele>103.77</ele>
        <time>2022-04-25T13:16:43.946Z</time>
      </trkpt>
      <trkpt lat="49.62095" lon="3.51306">
        <ele>103.4</ele>
        <time>2022-04-25T13:16:53.359Z</time>
      </trkpt>
      <trkpt lat="49.62088" lon="3.5131">
        <ele>84.84</ele>
        <time>2022-04-25T13:17:02.379Z</time>
      </trkpt>
      <trkpt lat="49.62078" lon="3.51301">
        <ele>84.84</ele>
        <time>2022-04-25T13:17:11.818Z</time>
      </trkpt>
      <trkpt lat="49.62074" lon="3.51301">
        <ele>84.84</ele>
        <time>2022-04-25T13:17:21.358Z</time>
      </trkpt>
      <trkpt lat="49.62068" lon="3.51321">
        <ele>84.84</ele>
        <time>2022-04-25T13:17:30.999Z</time>
      </trkpt>
      <trkpt lat="49.62075" lon="3.51331">
        <ele>84.84</ele>
        <time>2022-04-25T13:17:40.578Z</time>
      </trkpt>
      <trkpt lat="49.6208" lon="3.51337">
        <ele>84.84</ele>
        <time>2022-04-25T13:17:49.698Z</time>
      </trkpt>
      <trkpt lat="49.62089" lon="3.51341">
        <ele>84.84</ele>
        <time>2022-04-25T13:17:59.497Z</time>
      </trkpt>
      <trkpt lat="49.62098" lon="3.51353">
        <ele>84.84</ele>
        <time>2022-04-25T13:18:08.999Z</time>
      </trkpt>
      <trkpt lat="49.62108" lon="3.51367">
        <ele>84.84</ele>
        <time>2022-04-25T13:18:18.237Z</time>
      </trkpt>
      <trkpt lat="49.62119" lon="3.51379">
        <ele>103.22</ele>
        <time>2022-04-25T13:18:27.697Z</time>
      </trkpt>
      <trkpt lat="49.62127" lon="3.5139">
        <ele>103.39</ele>
        <time>2022-04-25T13:18:36.941Z</time>
      </trkpt>
      <trkpt lat="49.62135" lon="3.514">
        <ele>103.33</ele>
        <time>2022-04-25T13:18:46.266Z</time>
      </trkpt>
      <trkpt lat="49.62144" lon="3.51411">
        <ele>103.19</ele>
        <time>2022-04-25T13:18:55.718Z</time>
      </trkpt>
      <trkpt lat="49.62152" lon="3.51422">
        <ele>102.98</ele>
        <time>2022-04-25T13:19:05.118Z</time>
      </trkpt>
      <trkpt lat="49.62161" lon="3.51433">
        <ele>102.74</ele>
        <time>2022-04-25T13:19:14.438Z</time>
      </trkpt>
      <trkpt lat="49.62169" lon="3.51445">
        <ele>102.51</ele>
        <time>2022-04-25T13:19:23.999Z</time>
      </trkpt>
      <trkpt lat="49.62179" lon="3.51454">
        <ele>102.08</ele>
        <time>2022-04-25T13:19:33.559Z</time>
      </trkpt>
      <trkpt lat="49.62188" lon="3.51462">
        <ele>101.62</ele>
        <time>2022-04-25T13:19:43.117Z</time>
      </trkpt>
      <trkpt lat="49.62197" lon="3.51468">
        <ele>101.06</ele>
        <time>2022-04-25T13:19:52.619Z</time>
      </trkpt>
      <trkpt lat="49.62207" lon="3.51475">
        <ele>100.51</ele>
        <time>2022-04-25T13:20:01.998Z</time>
      </trkpt>
      <trkpt lat="49.62216" lon="3.51485">
        <ele>100.04</ele>
        <time>2022-04-25T13:20:11.318Z</time>
      </trkpt>
      <trkpt lat="49.62225" lon="3.51496">
        <ele>99.2</ele>
        <time>2022-04-25T13:20:20.858Z</time>
      </trkpt>
      <trkpt lat="49.62232" lon="3.51507">
        <ele>98.95</ele>
        <time>2022-04-25T13:20:29.999Z</time>
      </trkpt>
      <trkpt lat="49.62243" lon="3.51518">
        <ele>98.97</ele>
        <time>2022-04-25T13:20:39.578Z</time>
      </trkpt>
      <trkpt lat="49.62251" lon="3.5153">
        <ele>81.64</ele>
        <time>2022-04-25T13:20:48.639Z</time>
      </trkpt>
      <trkpt lat="49.62257" lon="3.51545">
        <ele>81.64</ele>
        <time>2022-04-25T13:20:57.866Z</time>
      </trkpt>
      <trkpt lat="49.62266" lon="3.51555">
        <ele>81.64</ele>
        <time>2022-04-25T13:21:07.159Z</time>
      </trkpt>
      <trkpt lat="49.62276" lon="3.51565">
        <ele>81.64</ele>
        <time>2022-04-25T13:21:16.578Z</time>
      </trkpt>
      <trkpt lat="49.62284" lon="3.51575">
        <ele>82.84</ele>
        <time>2022-04-25T13:21:26.017Z</time>
      </trkpt>
      <trkpt lat="49.62294" lon="3.51581">
        <ele>82.84</ele>
        <time>2022-04-25T13:21:35.177Z</time>
      </trkpt>
      <trkpt lat="49.62303" lon="3.51591">
        <ele>82.84</ele>
        <time>2022-04-25T13:21:44.557Z</time>
      </trkpt>
      <trkpt lat="49.62314" lon="3.51598">
        <ele>82.84</ele>
        <time>2022-04-25T13:21:54.189Z</time>
      </trkpt>
      <trkpt lat="49.62321" lon="3.5161">
        <ele>82.84</ele>
        <time>2022-04-25T13:22:03.564Z</time>
      </trkpt>
      <trkpt lat="49.62324" lon="3.51627">
        <ele>82.84</ele>
        <time>2022-04-25T13:22:12.745Z</time>
      </trkpt>
      <trkpt lat="49.62322" lon="3.51642">
        <ele>82.84</ele>
        <time>2022-04-25T13:22:21.999Z</time>
      </trkpt>
      <trkpt lat="49.62318" lon="3.51655">
        <ele>82.84</ele>
        <time>2022-04-25T13:22:31.999Z</time>
      </trkpt>
      <trkpt lat="49.62311" lon="3.51668">
        <ele>82.84</ele>
        <time>2022-04-25T13:22:41.303Z</time>
      </trkpt>
      <trkpt lat="49.62301" lon="3.51685">
        <ele>82.84</ele>
        <time>2022-04-25T13:22:50.525Z</time>
      </trkpt>
      <trkpt lat="49.62294" lon="3.51701">
        <ele>82.84</ele>
        <time>2022-04-25T13:22:59.529Z</time>
      </trkpt>
      <trkpt lat="49.62287" lon="3.51715">
        <ele>82.84</ele>
        <time>2022-04-25T13:23:08.704Z</time>
      </trkpt>
      <trkpt lat="49.62279" lon="3.51729">
        <ele>82.84</ele>
        <time>2022-04-25T13:23:18.243Z</time>
      </trkpt>
      <trkpt lat="49.62274" lon="3.51742">
        <ele>82.84</ele>
        <time>2022-04-25T13:23:27.263Z</time>
      </trkpt>
      <trkpt lat="49.62267" lon="3.51755">
        <ele>82.84</ele>
        <time>2022-04-25T13:23:36.766Z</time>
      </trkpt>
      <trkpt lat="49.6226" lon="3.51764">
        <ele>82.84</ele>
        <time>2022-04-25T13:23:45.825Z</time>
      </trkpt>
      <trkpt lat="49.62254" lon="3.51776">
        <ele>82.84</ele>
        <time>2022-04-25T13:23:54.999Z</time>
      </trkpt>
      <trkpt lat="49.62247" lon="3.51789">
        <ele>82.84</ele>
        <time>2022-04-25T13:24:04.544Z</time>
      </trkpt>
      <trkpt lat="49.62241" lon="3.51801">
        <ele>82.84</ele>
        <time>2022-04-25T13:24:13.724Z</time>
      </trkpt>
      <trkpt lat="49.62234" lon="3.51815">
        <ele>101.54</ele>
        <time>2022-04-25T13:24:22.764Z</time>
      </trkpt>
      <trkpt lat="49.62229" lon="3.51828">
        <ele>102.11</ele>
        <time>2022-04-25T13:24:31.845Z</time>
      </trkpt>
      <trkpt lat="49.62223" lon="3.51842">
        <ele>102.49</ele>
        <time>2022-04-25T13:24:40.866Z</time>
      </trkpt>
      <trkpt lat="49.62217" lon="3.51858">
        <ele>102.67</ele>
        <time>2022-04-25T13:24:50.303Z</time>
      </trkpt>
      <trkpt lat="49.62212" lon="3.51871">
        <ele>102.45</ele>
        <time>2022-04-25T13:24:59.805Z</time>
      </trkpt>
      <trkpt lat="49.62208" lon="3.51883">
        <ele>102.17</ele>
        <time>2022-04-25T13:25:09.325Z</time>
      </trkpt>
      <trkpt lat="49.62201" lon="3.51895">
        <ele>102.15</ele>
        <time>2022-04-25T13:25:18.999Z</time>
      </trkpt>
      <trkpt lat="49.62196" lon="3.5191">
        <ele>102.08</ele>
        <time>2022-04-25T13:25:28.805Z</time>
      </trkpt>
      <trkpt lat="49.62193" lon="3.51926">
        <ele>101.9</ele>
        <time>2022-04-25T13:25:38.324Z</time>
      </trkpt>
      <trkpt lat="49.62188" lon="3.51942">
        <ele>101.71</ele>
        <time>2022-04-25T13:25:47.805Z</time>
      </trkpt>
      <trkpt lat="49.62181" lon="3.51955">
        <ele>101.34</ele>
        <time>2022-04-25T13:25:57.224Z</time>
      </trkpt>
      <trkpt lat="49.62175" lon="3.51966">
        <ele>101.02</ele>
        <time>2022-04-25T13:26:06.264Z</time>
      </trkpt>
      <trkpt lat="49.62168" lon="3.51978">
        <ele>100.9</ele>
        <time>2022-04-25T13:26:15.544Z</time>
      </trkpt>
      <trkpt lat="49.6216" lon="3.51992">
        <ele>100.73</ele>
        <time>2022-04-25T13:26:25.065Z</time>
      </trkpt>
      <trkpt lat="49.62152" lon="3.52007">
        <ele>100.56</ele>
        <time>2022-04-25T13:26:34.385Z</time>
      </trkpt>
      <trkpt lat="49.62144" lon="3.5202">
        <ele>100.43</ele>
        <time>2022-04-25T13:26:43.404Z</time>
      </trkpt>
      <trkpt lat="49.62136" lon="3.52032">
        <ele>100.59</ele>
        <time>2022-04-25T13:26:52.844Z</time>
      </trkpt>
      <trkpt lat="49.6213" lon="3.52037">
        <ele>100.67</ele>
        <time>2022-04-25T13:27:02.425Z</time>
      </trkpt>
      <trkpt lat="49.6213" lon="3.52031">
        <ele>100.49</ele>
        <time>2022-04-25T13:27:11.999Z</time>
      </trkpt>
      <trkpt lat="49.62132" lon="3.52034">
        <ele>100.46</ele>
        <time>2022-04-25T13:27:21.999Z</time>
      </trkpt>
      <trkpt lat="49.62134" lon="3.52035">
        <ele>100.28</ele>
        <time>2022-04-25T13:27:31.584Z</time>
      </trkpt>
      <trkpt lat="49.62135" lon="3.52034">
        <ele>100.28</ele>
        <time>2022-04-25T13:27:40.744Z</time>
      </trkpt>
      <trkpt lat="49.62135" lon="3.52032">
        <ele>100.16</ele>
        <time>2022-04-25T13:27:49.764Z</time>
      </trkpt>
      <trkpt lat="49.62136" lon="3.52033">
        <ele>99.34</ele>
        <time>2022-04-25T13:28:06.525Z</time>
      </trkpt>
      <trkpt lat="49.62137" lon="3.52036">
        <ele>99.38</ele>
        <time>2022-04-25T13:28:16.999Z</time>
      </trkpt>
      <trkpt lat="49.62137" lon="3.52037">
        <ele>99.73</ele>
        <time>2022-04-25T13:28:31.304Z</time>
      </trkpt>
      <trkpt lat="49.62135" lon="3.52036">
        <ele>100.61</ele>
        <time>2022-04-25T13:28:40.999Z</time>
      </trkpt>
      <trkpt lat="49.62131" lon="3.52039">
        <ele>100.71</ele>
        <time>2022-04-25T13:28:50.999Z</time>
      </trkpt>
      <trkpt lat="49.62131" lon="3.52037">
        <ele>100.52</ele>
        <time>2022-04-25T13:29:13.784Z</time>
      </trkpt>
      <trkpt lat="49.6213" lon="3.52035">
        <ele>100.67</ele>
        <time>2022-04-25T13:29:22.999Z</time>
      </trkpt>
      <trkpt lat="49.62131" lon="3.52038">
        <ele>101.14</ele>
        <time>2022-04-25T13:29:32.404Z</time>
      </trkpt>
      <trkpt lat="49.62129" lon="3.52047">
        <ele>101.5</ele>
        <time>2022-04-25T13:29:41.484Z</time>
      </trkpt>
      <trkpt lat="49.62124" lon="3.52058">
        <ele>101.76</ele>
        <time>2022-04-25T13:29:50.823Z</time>
      </trkpt>
      <trkpt lat="49.62122" lon="3.52071">
        <ele>101.81</ele>
        <time>2022-04-25T13:30:00.284Z</time>
      </trkpt>
      <trkpt lat="49.62119" lon="3.52082">
        <ele>101.54</ele>
        <time>2022-04-25T13:30:09.866Z</time>
      </trkpt>
      <trkpt lat="49.62114" lon="3.52095">
        <ele>101.56</ele>
        <time>2022-04-25T13:30:19.284Z</time>
      </trkpt>
      <trkpt lat="49.62104" lon="3.52104">
        <ele>102.64</ele>
        <time>2022-04-25T13:30:28.999Z</time>
      </trkpt>
      <trkpt lat="49.62095" lon="3.52119">
        <ele>104.31</ele>
        <time>2022-04-25T13:30:38.165Z</time>
      </trkpt>
      <trkpt lat="49.62091" lon="3.52137">
        <ele>106.58</ele>
        <time>2022-04-25T13:30:47.223Z</time>
      </trkpt>
      <trkpt lat="49.62086" lon="3.52153">
        <ele>108.18</ele>
        <time>2022-04-25T13:30:56.364Z</time>
      </trkpt>
      <trkpt lat="49.6208" lon="3.52165">
        <ele>109.37</ele>
        <time>2022-04-25T13:31:05.764Z</time>
      </trkpt>
      <trkpt lat="49.62073" lon="3.52177">
        <ele>110.7</ele>
        <time>2022-04-25T13:31:15.225Z</time>
      </trkpt>
      <trkpt lat="49.62067" lon="3.52187">
        <ele>111.68</ele>
        <time>2022-04-25T13:31:24.325Z</time>
      </trkpt>
      <trkpt lat="49.62062" lon="3.522">
        <ele>112.43</ele>
        <time>2022-04-25T13:31:33.344Z</time>
      </trkpt>
      <trkpt lat="49.62057" lon="3.52213">
        <ele>113.05</ele>
        <time>2022-04-25T13:31:42.999Z</time>
      </trkpt>
      <trkpt lat="49.6205" lon="3.52225">
        <ele>113.43</ele>
        <time>2022-04-25T13:31:52.526Z</time>
      </trkpt>
      <trkpt lat="49.62043" lon="3.52235">
        <ele>113.57</ele>
        <time>2022-04-25T13:32:01.999Z</time>
      </trkpt>
      <trkpt lat="49.62037" lon="3.52245">
        <ele>113.45</ele>
        <time>2022-04-25T13:32:11.784Z</time>
      </trkpt>
      <trkpt lat="49.62032" lon="3.52257">
        <ele>113.4</ele>
        <time>2022-04-25T13:32:20.999Z</time>
      </trkpt>
      <trkpt lat="49.62023" lon="3.52263">
        <ele>113.1</ele>
        <time>2022-04-25T13:32:30.284Z</time>
      </trkpt>
      <trkpt lat="49.62017" lon="3.52264">
        <ele>112.48</ele>
        <time>2022-04-25T13:32:39.523Z</time>
      </trkpt>
      <trkpt lat="49.62009" lon="3.5227">
        <ele>111.15</ele>
        <time>2022-04-25T13:32:48.844Z</time>
      </trkpt>
      <trkpt lat="49.62003" lon="3.52267">
        <ele>108.94</ele>
        <time>2022-04-25T13:32:57.999Z</time>
      </trkpt>
      <trkpt lat="49.61999" lon="3.52272">
        <ele>107.66</ele>
        <time>2022-04-25T13:33:07.445Z</time>
      </trkpt>
      <trkpt lat="49.61992" lon="3.52271">
        <ele>106.06</ele>
        <time>2022-04-25T13:33:16.745Z</time>
      </trkpt>
      <trkpt lat="49.61984" lon="3.5227">
        <ele>104.55</ele>
        <time>2022-04-25T13:33:25.765Z</time>
      </trkpt>
      <trkpt lat="49.61975" lon="3.52268">
        <ele>103.22</ele>
        <time>2022-04-25T13:33:35.343Z</time>
      </trkpt>
      <trkpt lat="49.61968" lon="3.52264">
        <ele>102.12</ele>
        <time>2022-04-25T13:33:44.785Z</time>
      </trkpt>
      <trkpt lat="49.61959" lon="3.52259">
        <ele>101.05</ele>
        <time>2022-04-25T13:33:54.404Z</time>
      </trkpt>
      <trkpt lat="49.61952" lon="3.52257">
        <ele>100.67</ele>
        <time>2022-04-25T13:34:03.999Z</time>
      </trkpt>
      <trkpt lat="49.61951" lon="3.52253">
        <ele>100.59</ele>
        <time>2022-04-25T13:34:13.999Z</time>
      </trkpt>
      <trkpt lat="49.61948" lon="3.52249">
        <ele>100.57</ele>
        <time>2022-04-25T13:34:23.999Z</time>
      </trkpt>
      <trkpt lat="49.61949" lon="3.5225">
        <ele>100.69</ele>
        <time>2022-04-25T13:34:38.999Z</time>
      </trkpt>
      <trkpt lat="49.6195" lon="3.52249">
        <ele>101</ele>
        <time>2022-04-25T13:34:52.999Z</time>
      </trkpt>
      <trkpt lat="49.61945" lon="3.52246">
        <ele>101.29</ele>
        <time>2022-04-25T13:35:02.999Z</time>
      </trkpt>
      <trkpt lat="49.61944" lon="3.52247">
        <ele>101.46</ele>
        <time>2022-04-25T13:35:20.999Z</time>
      </trkpt>
      <trkpt lat="49.61944" lon="3.52248">
        <ele>102.88</ele>
        <time>2022-04-25T13:35:38.999Z</time>
      </trkpt>
      <trkpt lat="49.61943" lon="3.52249">
        <ele>103.42</ele>
        <time>2022-04-25T13:35:48.999Z</time>
      </trkpt>
      <trkpt lat="49.61946" lon="3.52253">
        <ele>104.02</ele>
        <time>2022-04-25T13:35:58.999Z</time>
      </trkpt>
      <trkpt lat="49.61949" lon="3.52253">
        <ele>104.55</ele>
        <time>2022-04-25T13:36:08.999Z</time>
      </trkpt>
      <trkpt lat="49.61948" lon="3.52251">
        <ele>104.49</ele>
        <time>2022-04-25T13:36:19.999Z</time>
      </trkpt>
      <trkpt lat="49.61947" lon="3.52247">
        <ele>104.48</ele>
        <time>2022-04-25T13:36:29.999Z</time>
      </trkpt>
      <trkpt lat="49.61947" lon="3.52249">
        <ele>104.7</ele>
        <time>2022-04-25T13:36:41.999Z</time>
      </trkpt>
      <trkpt lat="49.61949" lon="3.5225">
        <ele>104.74</ele>
        <time>2022-04-25T13:36:51.999Z</time>
      </trkpt>
      <trkpt lat="49.61949" lon="3.52249">
        <ele>105.39</ele>
        <time>2022-04-25T13:37:07.844Z</time>
      </trkpt>
      <trkpt lat="49.61946" lon="3.5225">
        <ele>105.9</ele>
        <time>2022-04-25T13:37:16.999Z</time>
      </trkpt>
      <trkpt lat="49.61943" lon="3.52253">
        <ele>106.06</ele>
        <time>2022-04-25T13:37:26.999Z</time>
      </trkpt>
      <trkpt lat="49.61943" lon="3.52254">
        <ele>106.62</ele>
        <time>2022-04-25T13:37:39.545Z</time>
      </trkpt>
      <trkpt lat="49.61931" lon="3.52265">
        <ele>106.89</ele>
        <time>2022-04-25T13:37:48.623Z</time>
      </trkpt>
      <trkpt lat="49.61922" lon="3.52274">
        <ele>107.19</ele>
        <time>2022-04-25T13:37:57.999Z</time>
      </trkpt>
      <trkpt lat="49.61918" lon="3.52277">
        <ele>107.5</ele>
        <time>2022-04-25T13:38:07.723Z</time>
      </trkpt>
      <trkpt lat="49.61911" lon="3.52282">
        <ele>108.43</ele>
        <time>2022-04-25T13:38:17.325Z</time>
      </trkpt>
      <trkpt lat="49.61905" lon="3.52284">
        <ele>108.9</ele>
        <time>2022-04-25T13:38:26.764Z</time>
      </trkpt>
      <trkpt lat="49.61902" lon="3.52278">
        <ele>109.15</ele>
        <time>2022-04-25T13:38:36.003Z</time>
      </trkpt>
      <trkpt lat="49.61887" lon="3.523">
        <ele>109.68</ele>
        <time>2022-04-25T13:38:45.399Z</time>
      </trkpt>
      <trkpt lat="49.61877" lon="3.52305">
        <ele>110.25</ele>
        <time>2022-04-25T13:38:54.999Z</time>
      </trkpt>
      <trkpt lat="49.61867" lon="3.52309">
        <ele>110.43</ele>
        <time>2022-04-25T13:39:04.518Z</time>
      </trkpt>
      <trkpt lat="49.61858" lon="3.52311">
        <ele>110.25</ele>
        <time>2022-04-25T13:39:13.841Z</time>
      </trkpt>
      <trkpt lat="49.61845" lon="3.52314">
        <ele>110.18</ele>
        <time>2022-04-25T13:39:23.799Z</time>
      </trkpt>
      <trkpt lat="49.61832" lon="3.52317">
        <ele>110.28</ele>
        <time>2022-04-25T13:39:33.199Z</time>
      </trkpt>
      <trkpt lat="49.61819" lon="3.52321">
        <ele>110.36</ele>
        <time>2022-04-25T13:39:42.799Z</time>
      </trkpt>
      <trkpt lat="49.61809" lon="3.52326">
        <ele>110.37</ele>
        <time>2022-04-25T13:39:52.119Z</time>
      </trkpt>
      <trkpt lat="49.61798" lon="3.52329">
        <ele>110.34</ele>
        <time>2022-04-25T13:40:01.479Z</time>
      </trkpt>
      <trkpt lat="49.61789" lon="3.52335">
        <ele>110.33</ele>
        <time>2022-04-25T13:40:10.999Z</time>
      </trkpt>
      <trkpt lat="49.61778" lon="3.52342">
        <ele>110.32</ele>
        <time>2022-04-25T13:40:20.880Z</time>
      </trkpt>
      <trkpt lat="49.61771" lon="3.52352">
        <ele>110.23</ele>
        <time>2022-04-25T13:40:30.282Z</time>
      </trkpt>
      <trkpt lat="49.61761" lon="3.52361">
        <ele>110.38</ele>
        <time>2022-04-25T13:40:39.505Z</time>
      </trkpt>
      <trkpt lat="49.61752" lon="3.52368">
        <ele>110.4</ele>
        <time>2022-04-25T13:40:48.725Z</time>
      </trkpt>
      <trkpt lat="49.61741" lon="3.52373">
        <ele>110.57</ele>
        <time>2022-04-25T13:40:57.999Z</time>
      </trkpt>
      <trkpt lat="49.61731" lon="3.52374">
        <ele>110.68</ele>
        <time>2022-04-25T13:41:07.402Z</time>
      </trkpt>
      <trkpt lat="49.61718" lon="3.5238">
        <ele>110.75</ele>
        <time>2022-04-25T13:41:16.662Z</time>
      </trkpt>
      <trkpt lat="49.6171" lon="3.52389">
        <ele>110.77</ele>
        <time>2022-04-25T13:41:26.442Z</time>
      </trkpt>
      <trkpt lat="49.61699" lon="3.52394">
        <ele>110.66</ele>
        <time>2022-04-25T13:41:35.999Z</time>
      </trkpt>
      <trkpt lat="49.6169" lon="3.52396">
        <ele>110.2</ele>
        <time>2022-04-25T13:41:45.182Z</time>
      </trkpt>
      <trkpt lat="49.61679" lon="3.52399">
        <ele>109.35</ele>
        <time>2022-04-25T13:41:54.262Z</time>
      </trkpt>
      <trkpt lat="49.61668" lon="3.52408">
        <ele>108.79</ele>
        <time>2022-04-25T13:42:03.581Z</time>
      </trkpt>
      <trkpt lat="49.61656" lon="3.52413">
        <ele>108.49</ele>
        <time>2022-04-25T13:42:12.623Z</time>
      </trkpt>
      <trkpt lat="49.61645" lon="3.52414">
        <ele>108.1</ele>
        <time>2022-04-25T13:42:21.862Z</time>
      </trkpt>
      <trkpt lat="49.61636" lon="3.52414">
        <ele>107.72</ele>
        <time>2022-04-25T13:42:31.302Z</time>
      </trkpt>
      <trkpt lat="49.61628" lon="3.52419">
        <ele>107.12</ele>
        <time>2022-04-25T13:42:40.822Z</time>
      </trkpt>
      <trkpt lat="49.61619" lon="3.52421">
        <ele>107.15</ele>
        <time>2022-04-25T13:42:49.999Z</time>
      </trkpt>
      <trkpt lat="49.61606" lon="3.52434">
        <ele>107.48</ele>
        <time>2022-04-25T13:42:59.298Z</time>
      </trkpt>
      <trkpt lat="49.61593" lon="3.52442">
        <ele>107.71</ele>
        <time>2022-04-25T13:43:08.799Z</time>
      </trkpt>
      <trkpt lat="49.61585" lon="3.52445">
        <ele>108.17</ele>
        <time>2022-04-25T13:43:18.258Z</time>
      </trkpt>
      <trkpt lat="49.61581" lon="3.52447">
        <ele>108.4</ele>
        <time>2022-04-25T13:43:27.999Z</time>
      </trkpt>
      <trkpt lat="49.61573" lon="3.52455">
        <ele>108.32</ele>
        <time>2022-04-25T13:43:37.358Z</time>
      </trkpt>
      <trkpt lat="49.61557" lon="3.52461">
        <ele>108.05</ele>
        <time>2022-04-25T13:43:46.497Z</time>
      </trkpt>
      <trkpt lat="49.61545" lon="3.52466">
        <ele>107.51</ele>
        <time>2022-04-25T13:43:55.999Z</time>
      </trkpt>
      <trkpt lat="49.61544" lon="3.52473">
        <ele>107.11</ele>
        <time>2022-04-25T13:44:05.999Z</time>
      </trkpt>
      <trkpt lat="49.61542" lon="3.52471">
        <ele>107.35</ele>
        <time>2022-04-25T13:44:15.819Z</time>
      </trkpt>
      <trkpt lat="49.61532" lon="3.52469">
        <ele>107.97</ele>
        <time>2022-04-25T13:44:24.957Z</time>
      </trkpt>
      <trkpt lat="49.61531" lon="3.52474">
        <ele>108.24</ele>
        <time>2022-04-25T13:44:34.999Z</time>
      </trkpt>
      <trkpt lat="49.61523" lon="3.52477">
        <ele>108.83</ele>
        <time>2022-04-25T13:44:44.299Z</time>
      </trkpt>
      <trkpt lat="49.6152" lon="3.52486">
        <ele>108.02</ele>
        <time>2022-04-25T13:44:53.518Z</time>
      </trkpt>
      <trkpt lat="49.61517" lon="3.52494">
        <ele>106.84</ele>
        <time>2022-04-25T13:45:02.999Z</time>
      </trkpt>
      <trkpt lat="49.61507" lon="3.52496">
        <ele>105.75</ele>
        <time>2022-04-25T13:45:12.577Z</time>
      </trkpt>
      <trkpt lat="49.61496" lon="3.52497">
        <ele>104.45</ele>
        <time>2022-04-25T13:45:21.859Z</time>
      </trkpt>
      <trkpt lat="49.61489" lon="3.525">
        <ele>102.68</ele>
        <time>2022-04-25T13:45:30.999Z</time>
      </trkpt>
      <trkpt lat="49.61476" lon="3.52505">
        <ele>101.1</ele>
        <time>2022-04-25T13:45:40.177Z</time>
      </trkpt>
      <trkpt lat="49.61466" lon="3.52508">
        <ele>99.62</ele>
        <time>2022-04-25T13:45:49.542Z</time>
      </trkpt>
      <trkpt lat="49.6146" lon="3.5251">
        <ele>98.98</ele>
        <time>2022-04-25T13:45:58.859Z</time>
      </trkpt>
      <trkpt lat="49.6145" lon="3.52513">
        <ele>98.62</ele>
        <time>2022-04-25T13:46:08.557Z</time>
      </trkpt>
      <trkpt lat="49.61439" lon="3.52513">
        <ele>98.35</ele>
        <time>2022-04-25T13:46:17.798Z</time>
      </trkpt>
      <trkpt lat="49.61428" lon="3.52518">
        <ele>98.42</ele>
        <time>2022-04-25T13:46:26.999Z</time>
      </trkpt>
      <trkpt lat="49.61418" lon="3.52523">
        <ele>98.65</ele>
        <time>2022-04-25T13:46:36.118Z</time>
      </trkpt>
      <trkpt lat="49.6141" lon="3.52528">
        <ele>99.14</ele>
        <time>2022-04-25T13:46:45.278Z</time>
      </trkpt>
      <trkpt lat="49.61403" lon="3.52534">
        <ele>99.41</ele>
        <time>2022-04-25T13:46:54.298Z</time>
      </trkpt>
      <trkpt lat="49.61396" lon="3.52538">
        <ele>99.05</ele>
        <time>2022-04-25T13:47:03.319Z</time>
      </trkpt>
      <trkpt lat="49.6139" lon="3.5254">
        <ele>98.26</ele>
        <time>2022-04-25T13:47:12.877Z</time>
      </trkpt>
      <trkpt lat="49.61382" lon="3.52544">
        <ele>97.53</ele>
        <time>2022-04-25T13:47:21.999Z</time>
      </trkpt>
      <trkpt lat="49.61372" lon="3.52551">
        <ele>97.51</ele>
        <time>2022-04-25T13:47:31.539Z</time>
      </trkpt>
      <trkpt lat="49.61359" lon="3.52551">
        <ele>97.98</ele>
        <time>2022-04-25T13:47:40.999Z</time>
      </trkpt>
      <trkpt lat="49.61344" lon="3.52559">
        <ele>98.98</ele>
        <time>2022-04-25T13:47:50.338Z</time>
      </trkpt>
      <trkpt lat="49.61332" lon="3.52565">
        <ele>99.77</ele>
        <time>2022-04-25T13:47:59.479Z</time>
      </trkpt>
      <trkpt lat="49.61321" lon="3.52565">
        <ele>100.4</ele>
        <time>2022-04-25T13:48:08.999Z</time>
      </trkpt>
      <trkpt lat="49.61314" lon="3.52572">
        <ele>101.06</ele>
        <time>2022-04-25T13:48:18.497Z</time>
      </trkpt>
      <trkpt lat="49.61308" lon="3.5258">
        <ele>101.55</ele>
        <time>2022-04-25T13:48:27.637Z</time>
      </trkpt>
      <trkpt lat="49.61303" lon="3.52587">
        <ele>101.89</ele>
        <time>2022-04-25T13:48:37.037Z</time>
      </trkpt>
      <trkpt lat="49.61295" lon="3.52595">
        <ele>102.23</ele>
        <time>2022-04-25T13:48:46.499Z</time>
      </trkpt>
      <trkpt lat="49.61289" lon="3.52599">
        <ele>102.74</ele>
        <time>2022-04-25T13:48:55.658Z</time>
      </trkpt>
      <trkpt lat="49.61282" lon="3.52607">
        <ele>103.32</ele>
        <time>2022-04-25T13:49:04.799Z</time>
      </trkpt>
      <trkpt lat="49.61276" lon="3.52609">
        <ele>103.45</ele>
        <time>2022-04-25T13:49:13.999Z</time>
      </trkpt>
      <trkpt lat="49.61275" lon="3.5261">
        <ele>103.67</ele>
        <time>2022-04-25T13:49:23.999Z</time>
      </trkpt>
      <trkpt lat="49.61272" lon="3.52619">
        <ele>103.59</ele>
        <time>2022-04-25T13:49:33.999Z</time>
      </trkpt>
      <trkpt lat="49.61271" lon="3.52618">
        <ele>103.48</ele>
        <time>2022-04-25T13:49:46.999Z</time>
      </trkpt>
      <trkpt lat="49.61272" lon="3.52612">
        <ele>103.35</ele>
        <time>2022-04-25T13:49:56.999Z</time>
      </trkpt>
      <trkpt lat="49.61269" lon="3.52609">
        <ele>103.04</ele>
        <time>2022-04-25T13:50:06.999Z</time>
      </trkpt>
      <trkpt lat="49.61268" lon="3.5261">
        <ele>102.73</ele>
        <time>2022-04-25T13:50:16.999Z</time>
      </trkpt>
      <trkpt lat="49.61268" lon="3.52608">
        <ele>102.14</ele>
        <time>2022-04-25T13:50:36.999Z</time>
      </trkpt>
      <trkpt lat="49.61268" lon="3.52605">
        <ele>101.92</ele>
        <time>2022-04-25T13:50:46.999Z</time>
      </trkpt>
      <trkpt lat="49.61272" lon="3.52602">
        <ele>94.42</ele>
        <time>2022-04-25T13:51:34.999Z</time>
      </trkpt>
      <trkpt lat="49.61278" lon="3.52597">
        <ele>93.35</ele>
        <time>2022-04-25T13:51:44.999Z</time>
      </trkpt>
      <trkpt lat="49.61277" lon="3.52599">
        <ele>89.92</ele>
        <time>2022-04-25T13:52:02.999Z</time>
      </trkpt>
      <trkpt lat="49.61272" lon="3.52611">
        <ele>88.03</ele>
        <time>2022-04-25T13:52:12.599Z</time>
      </trkpt>
      <trkpt lat="49.61273" lon="3.52621">
        <ele>87.51</ele>
        <time>2022-04-25T13:52:21.859Z</time>
      </trkpt>
      <trkpt lat="49.61267" lon="3.5263">
        <ele>88.5</ele>
        <time>2022-04-25T13:52:31.798Z</time>
      </trkpt>
      <trkpt lat="49.6127" lon="3.52637">
        <ele>90.41</ele>
        <time>2022-04-25T13:52:41.097Z</time>
      </trkpt>
      <trkpt lat="49.61276" lon="3.5266">
        <ele>92.2</ele>
        <time>2022-04-25T13:52:50.519Z</time>
      </trkpt>
      <trkpt lat="49.6128" lon="3.52678">
        <ele>93.79</ele>
        <time>2022-04-25T13:52:59.738Z</time>
      </trkpt>
      <trkpt lat="49.61283" lon="3.52693">
        <ele>95.29</ele>
        <time>2022-04-25T13:53:09.519Z</time>
      </trkpt>
      <trkpt lat="49.61286" lon="3.52709">
        <ele>96.34</ele>
        <time>2022-04-25T13:53:18.717Z</time>
      </trkpt>
      <trkpt lat="49.61288" lon="3.52725">
        <ele>97.45</ele>
        <time>2022-04-25T13:53:28.058Z</time>
      </trkpt>
      <trkpt lat="49.6129" lon="3.52741">
        <ele>98.5</ele>
        <time>2022-04-25T13:53:37.154Z</time>
      </trkpt>
      <trkpt lat="49.61291" lon="3.52755">
        <ele>99.38</ele>
        <time>2022-04-25T13:53:46.238Z</time>
      </trkpt>
      <trkpt lat="49.61291" lon="3.5277">
        <ele>99.95</ele>
        <time>2022-04-25T13:53:55.338Z</time>
      </trkpt>
      <trkpt lat="49.61294" lon="3.52783">
        <ele>100.99</ele>
        <time>2022-04-25T13:54:04.999Z</time>
      </trkpt>
      <trkpt lat="49.61298" lon="3.52799">
        <ele>101.63</ele>
        <time>2022-04-25T13:54:14.197Z</time>
      </trkpt>
      <trkpt lat="49.61303" lon="3.52815">
        <ele>102.23</ele>
        <time>2022-04-25T13:54:23.518Z</time>
      </trkpt>
      <trkpt lat="49.61307" lon="3.52831">
        <ele>102.6</ele>
        <time>2022-04-25T13:54:32.777Z</time>
      </trkpt>
      <trkpt lat="49.61309" lon="3.52848">
        <ele>102.87</ele>
        <time>2022-04-25T13:54:42.099Z</time>
      </trkpt>
      <trkpt lat="49.61315" lon="3.52864">
        <ele>102.68</ele>
        <time>2022-04-25T13:54:51.999Z</time>
      </trkpt>
      <trkpt lat="49.6132" lon="3.5288">
        <ele>102.48</ele>
        <time>2022-04-25T13:55:01.391Z</time>
      </trkpt>
      <trkpt lat="49.61328" lon="3.52897">
        <ele>102.18</ele>
        <time>2022-04-25T13:55:10.999Z</time>
      </trkpt>
      <trkpt lat="49.61333" lon="3.52915">
        <ele>102.05</ele>
        <time>2022-04-25T13:55:20.177Z</time>
      </trkpt>
      <trkpt lat="49.61338" lon="3.52931">
        <ele>101.58</ele>
        <time>2022-04-25T13:55:29.699Z</time>
      </trkpt>
      <trkpt lat="49.61342" lon="3.52947">
        <ele>100.77</ele>
        <time>2022-04-25T13:55:38.958Z</time>
      </trkpt>
      <trkpt lat="49.61345" lon="3.52965">
        <ele>100.56</ele>
        <time>2022-04-25T13:55:48.357Z</time>
      </trkpt>
      <trkpt lat="49.61348" lon="3.5298">
        <ele>100.18</ele>
        <time>2022-04-25T13:55:57.618Z</time>
      </trkpt>
      <trkpt lat="49.61352" lon="3.52996">
        <ele>100.14</ele>
        <time>2022-04-25T13:56:06.978Z</time>
      </trkpt>
      <trkpt lat="49.61355" lon="3.53011">
        <ele>100.8</ele>
        <time>2022-04-25T13:56:16.278Z</time>
      </trkpt>
      <trkpt lat="49.61359" lon="3.53025">
        <ele>101.65</ele>
        <time>2022-04-25T13:56:25.999Z</time>
      </trkpt>
      <trkpt lat="49.61367" lon="3.53038">
        <ele>102.42</ele>
        <time>2022-04-25T13:56:35.198Z</time>
      </trkpt>
      <trkpt lat="49.61372" lon="3.53052">
        <ele>103.02</ele>
        <time>2022-04-25T13:56:44.659Z</time>
      </trkpt>
      <trkpt lat="49.61377" lon="3.53069">
        <ele>103.52</ele>
        <time>2022-04-25T13:56:53.999Z</time>
      </trkpt>
      <trkpt lat="49.61382" lon="3.53087">
        <ele>103.33</ele>
        <time>2022-04-25T13:57:03.317Z</time>
      </trkpt>
      <trkpt lat="49.61387" lon="3.53107">
        <ele>102.99</ele>
        <time>2022-04-25T13:57:12.678Z</time>
      </trkpt>
      <trkpt lat="49.61391" lon="3.53124">
        <ele>102.57</ele>
        <time>2022-04-25T13:57:21.999Z</time>
      </trkpt>
      <trkpt lat="49.61381" lon="3.53133">
        <ele>102.69</ele>
        <time>2022-04-25T13:57:31.338Z</time>
      </trkpt>
      <trkpt lat="49.6137" lon="3.53141">
        <ele>101.93</ele>
        <time>2022-04-25T13:57:40.757Z</time>
      </trkpt>
      <trkpt lat="49.61358" lon="3.53145">
        <ele>99.61</ele>
        <time>2022-04-25T13:57:50.209Z</time>
      </trkpt>
      <trkpt lat="49.61349" lon="3.53148">
        <ele>97.01</ele>
        <time>2022-04-25T13:57:59.578Z</time>
      </trkpt>
      <trkpt lat="49.61339" lon="3.53152">
        <ele>95.17</ele>
        <time>2022-04-25T13:58:08.959Z</time>
      </trkpt>
      <trkpt lat="49.61332" lon="3.53157">
        <ele>94.05</ele>
        <time>2022-04-25T13:58:18.389Z</time>
      </trkpt>
      <trkpt lat="49.61332" lon="3.5318">
        <ele>93.18</ele>
        <time>2022-04-25T13:58:27.799Z</time>
      </trkpt>
      <trkpt lat="49.61324" lon="3.53183">
        <ele>92.4</ele>
        <time>2022-04-25T13:58:37.317Z</time>
      </trkpt>
      <trkpt lat="49.61311" lon="3.53195">
        <ele>92.73</ele>
        <time>2022-04-25T13:58:46.882Z</time>
      </trkpt>
      <trkpt lat="49.61301" lon="3.53201">
        <ele>93.35</ele>
        <time>2022-04-25T13:58:56.298Z</time>
      </trkpt>
      <trkpt lat="49.61291" lon="3.53211">
        <ele>93.85</ele>
        <time>2022-04-25T13:59:05.638Z</time>
      </trkpt>
      <trkpt lat="49.6128" lon="3.53218">
        <ele>94.46</ele>
        <time>2022-04-25T13:59:15.152Z</time>
      </trkpt>
      <trkpt lat="49.61269" lon="3.53227">
        <ele>94.94</ele>
        <time>2022-04-25T13:59:24.518Z</time>
      </trkpt>
      <trkpt lat="49.6126" lon="3.53233">
        <ele>95.65</ele>
        <time>2022-04-25T13:59:33.939Z</time>
      </trkpt>
      <trkpt lat="49.6125" lon="3.5324">
        <ele>96.1</ele>
        <time>2022-04-25T13:59:43.179Z</time>
      </trkpt>
      <trkpt lat="49.61244" lon="3.53246">
        <ele>96.43</ele>
        <time>2022-04-25T13:59:52.458Z</time>
      </trkpt>
      <trkpt lat="49.61233" lon="3.53251">
        <ele>96.79</ele>
        <time>2022-04-25T14:00:01.699Z</time>
      </trkpt>
      <trkpt lat="49.61223" lon="3.53255">
        <ele>96.84</ele>
        <time>2022-04-25T14:00:10.999Z</time>
      </trkpt>
      <trkpt lat="49.61213" lon="3.53262">
        <ele>96.63</ele>
        <time>2022-04-25T14:00:20.578Z</time>
      </trkpt>
      <trkpt lat="49.61206" lon="3.53272">
        <ele>96.59</ele>
        <time>2022-04-25T14:00:29.999Z</time>
      </trkpt>
      <trkpt lat="49.61197" lon="3.53281">
        <ele>97.03</ele>
        <time>2022-04-25T14:00:39.278Z</time>
      </trkpt>
      <trkpt lat="49.61185" lon="3.53286">
        <ele>97.45</ele>
        <time>2022-04-25T14:00:48.758Z</time>
      </trkpt>
      <trkpt lat="49.61177" lon="3.53297">
        <ele>97.78</ele>
        <time>2022-04-25T14:00:57.999Z</time>
      </trkpt>
      <trkpt lat="49.6117" lon="3.53309">
        <ele>98.2</ele>
        <time>2022-04-25T14:01:07.637Z</time>
      </trkpt>
      <trkpt lat="49.61161" lon="3.53317">
        <ele>98.98</ele>
        <time>2022-04-25T14:01:16.839Z</time>
      </trkpt>
      <trkpt lat="49.61154" lon="3.53326">
        <ele>99.47</ele>
        <time>2022-04-25T14:01:26.519Z</time>
      </trkpt>
      <trkpt lat="49.61144" lon="3.53332">
        <ele>99.54</ele>
        <time>2022-04-25T14:01:35.639Z</time>
      </trkpt>
      <trkpt lat="49.61132" lon="3.53339">
        <ele>99.5</ele>
        <time>2022-04-25T14:01:44.678Z</time>
      </trkpt>
      <trkpt lat="49.61121" lon="3.53343">
        <ele>99.52</ele>
        <time>2022-04-25T14:01:54.078Z</time>
      </trkpt>
      <trkpt lat="49.61111" lon="3.5335">
        <ele>99.57</ele>
        <time>2022-04-25T14:02:03.999Z</time>
      </trkpt>
      <trkpt lat="49.61104" lon="3.53359">
        <ele>99.93</ele>
        <time>2022-04-25T14:02:13.598Z</time>
      </trkpt>
      <trkpt lat="49.61096" lon="3.53368">
        <ele>100.75</ele>
        <time>2022-04-25T14:02:23.080Z</time>
      </trkpt>
      <trkpt lat="49.61087" lon="3.53384">
        <ele>101.39</ele>
        <time>2022-04-25T14:02:32.549Z</time>
      </trkpt>
      <trkpt lat="49.61076" lon="3.53391">
        <ele>101.98</ele>
        <time>2022-04-25T14:02:41.964Z</time>
      </trkpt>
      <trkpt lat="49.61068" lon="3.53399">
        <ele>102.4</ele>
        <time>2022-04-25T14:02:51.285Z</time>
      </trkpt>
      <trkpt lat="49.61054" lon="3.53406">
        <ele>102.15</ele>
        <time>2022-04-25T14:03:00.844Z</time>
      </trkpt>
      <trkpt lat="49.61042" lon="3.53408">
        <ele>101.62</ele>
        <time>2022-04-25T14:03:10.125Z</time>
      </trkpt>
      <trkpt lat="49.61034" lon="3.53415">
        <ele>101.53</ele>
        <time>2022-04-25T14:03:19.404Z</time>
      </trkpt>
      <trkpt lat="49.61024" lon="3.53423">
        <ele>101.66</ele>
        <time>2022-04-25T14:03:28.704Z</time>
      </trkpt>
      <trkpt lat="49.61014" lon="3.53431">
        <ele>101.43</ele>
        <time>2022-04-25T14:03:37.999Z</time>
      </trkpt>
      <trkpt lat="49.61008" lon="3.53443">
        <ele>101.28</ele>
        <time>2022-04-25T14:03:47.456Z</time>
      </trkpt>
      <trkpt lat="49.60995" lon="3.53448">
        <ele>101.11</ele>
        <time>2022-04-25T14:03:56.542Z</time>
      </trkpt>
      <trkpt lat="49.60981" lon="3.53457">
        <ele>100.35</ele>
        <time>2022-04-25T14:04:05.999Z</time>
      </trkpt>
      <trkpt lat="49.60971" lon="3.53465">
        <ele>99.34</ele>
        <time>2022-04-25T14:04:15.999Z</time>
      </trkpt>
      <trkpt lat="49.60963" lon="3.5347">
        <ele>99.34</ele>
        <time>2022-04-25T14:04:25.347Z</time>
      </trkpt>
      <trkpt lat="49.60956" lon="3.53474">
        <ele>99.82</ele>
        <time>2022-04-25T14:04:34.550Z</time>
      </trkpt>
      <trkpt lat="49.60948" lon="3.53478">
        <ele>100.23</ele>
        <time>2022-04-25T14:04:43.621Z</time>
      </trkpt>
      <trkpt lat="49.6094" lon="3.53487">
        <ele>100.76</ele>
        <time>2022-04-25T14:04:53.693Z</time>
      </trkpt>
      <trkpt lat="49.60929" lon="3.53506">
        <ele>100.93</ele>
        <time>2022-04-25T14:05:02.999Z</time>
      </trkpt>
      <trkpt lat="49.6092" lon="3.53512">
        <ele>101.2</ele>
        <time>2022-04-25T14:05:12.346Z</time>
      </trkpt>
      <trkpt lat="49.60912" lon="3.53515">
        <ele>101.52</ele>
        <time>2022-04-25T14:05:21.686Z</time>
      </trkpt>
      <trkpt lat="49.609" lon="3.53528">
        <ele>102.13</ele>
        <time>2022-04-25T14:05:31.086Z</time>
      </trkpt>
      <trkpt lat="49.60889" lon="3.53537">
        <ele>102.96</ele>
        <time>2022-04-25T14:05:40.406Z</time>
      </trkpt>
      <trkpt lat="49.6088" lon="3.53546">
        <ele>104.02</ele>
        <time>2022-04-25T14:05:49.999Z</time>
      </trkpt>
      <trkpt lat="49.60869" lon="3.53552">
        <ele>104.88</ele>
        <time>2022-04-25T14:05:59.265Z</time>
      </trkpt>
      <trkpt lat="49.60857" lon="3.53558">
        <ele>105.63</ele>
        <time>2022-04-25T14:06:08.507Z</time>
      </trkpt>
      <trkpt lat="49.60848" lon="3.53566">
        <ele>106.55</ele>
        <time>2022-04-25T14:06:17.833Z</time>
      </trkpt>
      <trkpt lat="49.60837" lon="3.53575">
        <ele>107.83</ele>
        <time>2022-04-25T14:06:27.186Z</time>
      </trkpt>
      <trkpt lat="49.60828" lon="3.53585">
        <ele>108.77</ele>
        <time>2022-04-25T14:06:36.427Z</time>
      </trkpt>
      <trkpt lat="49.60819" lon="3.53593">
        <ele>109.44</ele>
        <time>2022-04-25T14:06:45.626Z</time>
      </trkpt>
      <trkpt lat="49.6081" lon="3.53605">
        <ele>109.93</ele>
        <time>2022-04-25T14:06:54.999Z</time>
      </trkpt>
      <trkpt lat="49.60801" lon="3.53613">
        <ele>110.13</ele>
        <time>2022-04-25T14:07:04.247Z</time>
      </trkpt>
      <trkpt lat="49.608" lon="3.53627">
        <ele>110.29</ele>
        <time>2022-04-25T14:07:13.518Z</time>
      </trkpt>
      <trkpt lat="49.60787" lon="3.53632">
        <ele>110.73</ele>
        <time>2022-04-25T14:07:22.978Z</time>
      </trkpt>
      <trkpt lat="49.60776" lon="3.53637">
        <ele>111.19</ele>
        <time>2022-04-25T14:07:32.378Z</time>
      </trkpt>
      <trkpt lat="49.60765" lon="3.53644">
        <ele>111.78</ele>
        <time>2022-04-25T14:07:41.999Z</time>
      </trkpt>
      <trkpt lat="49.60752" lon="3.53651">
        <ele>112.17</ele>
        <time>2022-04-25T14:07:51.599Z</time>
      </trkpt>
      <trkpt lat="49.60741" lon="3.53665">
        <ele>112.43</ele>
        <time>2022-04-25T14:08:01.617Z</time>
      </trkpt>
      <trkpt lat="49.60731" lon="3.53672">
        <ele>112.4</ele>
        <time>2022-04-25T14:08:11.659Z</time>
      </trkpt>
      <trkpt lat="49.60726" lon="3.53671">
        <ele>111.92</ele>
        <time>2022-04-25T14:08:20.798Z</time>
      </trkpt>
      <trkpt lat="49.60725" lon="3.53675">
        <ele>111.34</ele>
        <time>2022-04-25T14:08:29.999Z</time>
      </trkpt>
      <trkpt lat="49.60724" lon="3.53676">
        <ele>110.42</ele>
        <time>2022-04-25T14:08:39.999Z</time>
      </trkpt>
      <trkpt lat="49.60722" lon="3.53675">
        <ele>110.01</ele>
        <time>2022-04-25T14:09:01.999Z</time>
      </trkpt>
      <trkpt lat="49.60717" lon="3.53671">
        <ele>110.08</ele>
        <time>2022-04-25T14:09:11.999Z</time>
      </trkpt>
      <trkpt lat="49.60718" lon="3.5367">
        <ele>109.98</ele>
        <time>2022-04-25T14:09:23.999Z</time>
      </trkpt>
      <trkpt lat="49.60718" lon="3.53667">
        <ele>110.24</ele>
        <time>2022-04-25T14:09:33.399Z</time>
      </trkpt>
      <trkpt lat="49.60717" lon="3.53662">
        <ele>110.75</ele>
        <time>2022-04-25T14:09:42.999Z</time>
      </trkpt>
      <trkpt lat="49.60719" lon="3.53665">
        <ele>111.53</ele>
        <time>2022-04-25T14:09:52.999Z</time>
      </trkpt>
      <trkpt lat="49.60719" lon="3.53672">
        <ele>111.72</ele>
        <time>2022-04-25T14:10:02.999Z</time>
      </trkpt>
      <trkpt lat="49.6072" lon="3.53673">
        <ele>115.36</ele>
        <time>2022-04-25T14:11:02.999Z</time>
      </trkpt>
      <trkpt lat="49.60721" lon="3.53673">
        <ele>115.78</ele>
        <time>2022-04-25T14:11:14.999Z</time>
      </trkpt>
      <trkpt lat="49.60719" lon="3.5367">
        <ele>115.89</ele>
        <time>2022-04-25T14:11:24.359Z</time>
      </trkpt>
      <trkpt lat="49.60716" lon="3.53669">
        <ele>115.54</ele>
        <time>2022-04-25T14:11:33.578Z</time>
      </trkpt>
      <trkpt lat="49.60711" lon="3.5365">
        <ele>114.45</ele>
        <time>2022-04-25T14:11:42.999Z</time>
      </trkpt>
      <trkpt lat="49.60707" lon="3.53635">
        <ele>113.09</ele>
        <time>2022-04-25T14:11:52.498Z</time>
      </trkpt>
      <trkpt lat="49.60701" lon="3.53622">
        <ele>111.56</ele>
        <time>2022-04-25T14:12:01.599Z</time>
      </trkpt>
      <trkpt lat="49.60697" lon="3.53608">
        <ele>109.61</ele>
        <time>2022-04-25T14:12:10.618Z</time>
      </trkpt>
      <trkpt lat="49.60691" lon="3.53593">
        <ele>107.98</ele>
        <time>2022-04-25T14:12:19.837Z</time>
      </trkpt>
      <trkpt lat="49.60687" lon="3.53584">
        <ele>106.13</ele>
        <time>2022-04-25T14:12:29.298Z</time>
      </trkpt>
      <trkpt lat="49.60682" lon="3.53574">
        <ele>104.26</ele>
        <time>2022-04-25T14:12:38.659Z</time>
      </trkpt>
      <trkpt lat="49.60674" lon="3.53556">
        <ele>102.48</ele>
        <time>2022-04-25T14:12:48.318Z</time>
      </trkpt>
      <trkpt lat="49.60668" lon="3.53538">
        <ele>101.27</ele>
        <time>2022-04-25T14:12:57.698Z</time>
      </trkpt>
      <trkpt lat="49.60663" lon="3.53521">
        <ele>100.21</ele>
        <time>2022-04-25T14:13:07.739Z</time>
      </trkpt>
      <trkpt lat="49.60657" lon="3.53507">
        <ele>99.41</ele>
        <time>2022-04-25T14:13:16.758Z</time>
      </trkpt>
      <trkpt lat="49.60648" lon="3.53495">
        <ele>99.14</ele>
        <time>2022-04-25T14:13:25.999Z</time>
      </trkpt>
      <trkpt lat="49.6064" lon="3.53482">
        <ele>98.7</ele>
        <time>2022-04-25T14:13:35.617Z</time>
      </trkpt>
      <trkpt lat="49.60634" lon="3.53469">
        <ele>98.63</ele>
        <time>2022-04-25T14:13:45.058Z</time>
      </trkpt>
      <trkpt lat="49.60627" lon="3.53459">
        <ele>98.43</ele>
        <time>2022-04-25T14:13:54.447Z</time>
      </trkpt>
      <trkpt lat="49.60618" lon="3.53445">
        <ele>98.41</ele>
        <time>2022-04-25T14:14:03.843Z</time>
      </trkpt>
      <trkpt lat="49.60611" lon="3.53434">
        <ele>98.07</ele>
        <time>2022-04-25T14:14:12.861Z</time>
      </trkpt>
      <trkpt lat="49.60604" lon="3.53426">
        <ele>97.94</ele>
        <time>2022-04-25T14:14:22.461Z</time>
      </trkpt>
      <trkpt lat="49.60597" lon="3.53413">
        <ele>97.84</ele>
        <time>2022-04-25T14:14:31.999Z</time>
      </trkpt>
      <trkpt lat="49.60592" lon="3.53398">
        <ele>97.99</ele>
        <time>2022-04-25T14:14:41.480Z</time>
      </trkpt>
      <trkpt lat="49.60587" lon="3.5338">
        <ele>97.97</ele>
        <time>2022-04-25T14:14:50.800Z</time>
      </trkpt>
      <trkpt lat="49.60578" lon="3.53367">
        <ele>97.89</ele>
        <time>2022-04-25T14:15:00.379Z</time>
      </trkpt>
      <trkpt lat="49.60571" lon="3.53355">
        <ele>98.04</ele>
        <time>2022-04-25T14:15:09.400Z</time>
      </trkpt>
      <trkpt lat="49.60564" lon="3.53339">
        <ele>97.85</ele>
        <time>2022-04-25T14:15:19.420Z</time>
      </trkpt>
      <trkpt lat="49.60556" lon="3.53326">
        <ele>97.54</ele>
        <time>2022-04-25T14:15:28.780Z</time>
      </trkpt>
      <trkpt lat="49.60549" lon="3.53314">
        <ele>97.54</ele>
        <time>2022-04-25T14:15:37.781Z</time>
      </trkpt>
      <trkpt lat="49.60542" lon="3.53303">
        <ele>97.31</ele>
        <time>2022-04-25T14:15:46.800Z</time>
      </trkpt>
      <trkpt lat="49.60534" lon="3.5329">
        <ele>97.23</ele>
        <time>2022-04-25T14:15:56.220Z</time>
      </trkpt>
      <trkpt lat="49.60526" lon="3.53278">
        <ele>97.37</ele>
        <time>2022-04-25T14:16:05.999Z</time>
      </trkpt>
      <trkpt lat="49.60518" lon="3.53265">
        <ele>97.51</ele>
        <time>2022-04-25T14:16:15.359Z</time>
      </trkpt>
      <trkpt lat="49.60511" lon="3.53251">
        <ele>97.73</ele>
        <time>2022-04-25T14:16:24.820Z</time>
      </trkpt>
      <trkpt lat="49.60503" lon="3.53238">
        <ele>98.13</ele>
        <time>2022-04-25T14:16:34.100Z</time>
      </trkpt>
      <trkpt lat="49.60495" lon="3.53227">
        <ele>98.65</ele>
        <time>2022-04-25T14:16:43.460Z</time>
      </trkpt>
      <trkpt lat="49.60486" lon="3.53216">
        <ele>98.9</ele>
        <time>2022-04-25T14:16:52.801Z</time>
      </trkpt>
      <trkpt lat="49.60479" lon="3.53203">
        <ele>99.32</ele>
        <time>2022-04-25T14:17:01.999Z</time>
      </trkpt>
      <trkpt lat="49.60471" lon="3.53189">
        <ele>99.47</ele>
        <time>2022-04-25T14:17:11.160Z</time>
      </trkpt>
      <trkpt lat="49.60464" lon="3.53175">
        <ele>99.55</ele>
        <time>2022-04-25T14:17:20.421Z</time>
      </trkpt>
      <trkpt lat="49.60456" lon="3.53164">
        <ele>99.9</ele>
        <time>2022-04-25T14:17:29.700Z</time>
      </trkpt>
      <trkpt lat="49.6045" lon="3.53151">
        <ele>100.08</ele>
        <time>2022-04-25T14:17:39.299Z</time>
      </trkpt>
      <trkpt lat="49.60443" lon="3.53137">
        <ele>100.35</ele>
        <time>2022-04-25T14:17:48.699Z</time>
      </trkpt>
      <trkpt lat="49.60437" lon="3.53122">
        <ele>100.63</ele>
        <time>2022-04-25T14:17:58.161Z</time>
      </trkpt>
      <trkpt lat="49.60429" lon="3.53111">
        <ele>100.54</ele>
        <time>2022-04-25T14:18:07.339Z</time>
      </trkpt>
      <trkpt lat="49.6042" lon="3.53101">
        <ele>100.45</ele>
        <time>2022-04-25T14:18:16.780Z</time>
      </trkpt>
      <trkpt lat="49.6041" lon="3.53088">
        <ele>100.25</ele>
        <time>2022-04-25T14:18:25.999Z</time>
      </trkpt>
      <trkpt lat="49.60401" lon="3.53074">
        <ele>99.74</ele>
        <time>2022-04-25T14:18:35.280Z</time>
      </trkpt>
      <trkpt lat="49.60393" lon="3.53058">
        <ele>99.01</ele>
        <time>2022-04-25T14:18:45.199Z</time>
      </trkpt>
      <trkpt lat="49.60388" lon="3.53047">
        <ele>98.45</ele>
        <time>2022-04-25T14:18:54.340Z</time>
      </trkpt>
      <trkpt lat="49.60384" lon="3.53035">
        <ele>97.53</ele>
        <time>2022-04-25T14:19:03.661Z</time>
      </trkpt>
      <trkpt lat="49.60375" lon="3.53023">
        <ele>96.96</ele>
        <time>2022-04-25T14:19:12.820Z</time>
      </trkpt>
      <trkpt lat="49.6037" lon="3.53009">
        <ele>96.54</ele>
        <time>2022-04-25T14:19:22.219Z</time>
      </trkpt>
      <trkpt lat="49.60363" lon="3.52995">
        <ele>96.18</ele>
        <time>2022-04-25T14:19:31.999Z</time>
      </trkpt>
      <trkpt lat="49.60357" lon="3.52981">
        <ele>96.06</ele>
        <time>2022-04-25T14:19:41.500Z</time>
      </trkpt>
      <trkpt lat="49.60351" lon="3.52966">
        <ele>96.06</ele>
        <time>2022-04-25T14:19:50.659Z</time>
      </trkpt>
      <trkpt lat="49.60346" lon="3.52948">
        <ele>95.87</ele>
        <time>2022-04-25T14:19:59.861Z</time>
      </trkpt>
      <trkpt lat="49.60339" lon="3.52933">
        <ele>95.58</ele>
        <time>2022-04-25T14:20:09.120Z</time>
      </trkpt>
      <trkpt lat="49.60331" lon="3.5292">
        <ele>95.27</ele>
        <time>2022-04-25T14:20:18.500Z</time>
      </trkpt>
      <trkpt lat="49.60327" lon="3.52904">
        <ele>95</ele>
        <time>2022-04-25T14:20:28.099Z</time>
      </trkpt>
      <trkpt lat="49.60321" lon="3.52891">
        <ele>94.87</ele>
        <time>2022-04-25T14:20:37.160Z</time>
      </trkpt>
      <trkpt lat="49.60315" lon="3.52877">
        <ele>94.74</ele>
        <time>2022-04-25T14:20:46.461Z</time>
      </trkpt>
      <trkpt lat="49.60308" lon="3.52864">
        <ele>94.4</ele>
        <time>2022-04-25T14:20:56.059Z</time>
      </trkpt>
      <trkpt lat="49.60299" lon="3.52854">
        <ele>93.64</ele>
        <time>2022-04-25T14:21:05.722Z</time>
      </trkpt>
      <trkpt lat="49.6029" lon="3.52835">
        <ele>92.42</ele>
        <time>2022-04-25T14:21:14.999Z</time>
      </trkpt>
      <trkpt lat="49.60283" lon="3.5282">
        <ele>92.04</ele>
        <time>2022-04-25T14:21:24.999Z</time>
      </trkpt>
      <trkpt lat="49.60278" lon="3.52805">
        <ele>91.7</ele>
        <time>2022-04-25T14:21:34.240Z</time>
      </trkpt>
      <trkpt lat="49.60274" lon="3.52791">
        <ele>91.31</ele>
        <time>2022-04-25T14:21:43.383Z</time>
      </trkpt>
      <trkpt lat="49.60268" lon="3.52776">
        <ele>91.22</ele>
        <time>2022-04-25T14:21:52.826Z</time>
      </trkpt>
      <trkpt lat="49.60265" lon="3.52761">
        <ele>91.28</ele>
        <time>2022-04-25T14:22:02.182Z</time>
      </trkpt>
      <trkpt lat="49.60261" lon="3.52748">
        <ele>91.38</ele>
        <time>2022-04-25T14:22:11.369Z</time>
      </trkpt>
      <trkpt lat="49.60255" lon="3.52736">
        <ele>91.52</ele>
        <time>2022-04-25T14:22:20.999Z</time>
      </trkpt>
      <trkpt lat="49.6025" lon="3.52722">
        <ele>91.69</ele>
        <time>2022-04-25T14:22:30.724Z</time>
      </trkpt>
      <trkpt lat="49.60236" lon="3.52716">
        <ele>91.84</ele>
        <time>2022-04-25T14:22:39.787Z</time>
      </trkpt>
      <trkpt lat="49.60234" lon="3.52705">
        <ele>91.96</ele>
        <time>2022-04-25T14:22:49.667Z</time>
      </trkpt>
      <trkpt lat="49.60231" lon="3.52698">
        <ele>91.64</ele>
        <time>2022-04-25T14:22:59.226Z</time>
      </trkpt>
      <trkpt lat="49.60222" lon="3.52682">
        <ele>91.17</ele>
        <time>2022-04-25T14:23:08.260Z</time>
      </trkpt>
      <trkpt lat="49.60222" lon="3.52672">
        <ele>90.75</ele>
        <time>2022-04-25T14:23:17.999Z</time>
      </trkpt>
      <trkpt lat="49.6022" lon="3.5267">
        <ele>90.79</ele>
        <time>2022-04-25T14:23:27.999Z</time>
      </trkpt>
      <trkpt lat="49.60219" lon="3.52669">
        <ele>90.85</ele>
        <time>2022-04-25T14:23:37.999Z</time>
      </trkpt>
      <trkpt lat="49.6022" lon="3.52664">
        <ele>91.25</ele>
        <time>2022-04-25T14:23:47.999Z</time>
      </trkpt>
      <trkpt lat="49.6022" lon="3.52661">
        <ele>90.87</ele>
        <time>2022-04-25T14:23:57.999Z</time>
      </trkpt>
      <trkpt lat="49.60222" lon="3.52658">
        <ele>90.31</ele>
        <time>2022-04-25T14:24:07.999Z</time>
      </trkpt>
      <trkpt lat="49.6022" lon="3.52656">
        <ele>87.73</ele>
        <time>2022-04-25T14:25:38.000Z</time>
      </trkpt>
      <trkpt lat="49.60221" lon="3.52656">
        <ele>87.73</ele>
        <time>2022-04-25T14:25:52.000Z</time>
      </trkpt>
      <trkpt lat="49.60222" lon="3.52657">
        <ele>96.3</ele>
        <time>2022-04-25T14:26:23.000Z</time>
      </trkpt>
      <trkpt lat="49.60222" lon="3.52658">
        <ele>97.31</ele>
        <time>2022-04-25T14:26:33.000Z</time>
      </trkpt>
      <trkpt lat="49.60223" lon="3.52659">
        <ele>98.22</ele>
        <time>2022-04-25T14:26:43.304Z</time>
      </trkpt>
      <trkpt lat="49.60223" lon="3.52657">
        <ele>99.65</ele>
        <time>2022-04-25T14:26:52.387Z</time>
      </trkpt>
      <trkpt lat="49.6023" lon="3.52642">
        <ele>100.59</ele>
        <time>2022-04-25T14:27:01.764Z</time>
      </trkpt>
      <trkpt lat="49.6024" lon="3.52638">
        <ele>100.63</ele>
        <time>2022-04-25T14:27:10.845Z</time>
      </trkpt>
      <trkpt lat="49.60246" lon="3.52632">
        <ele>100.08</ele>
        <time>2022-04-25T14:27:20.165Z</time>
      </trkpt>
      <trkpt lat="49.60255" lon="3.52624">
        <ele>99.28</ele>
        <time>2022-04-25T14:27:29.287Z</time>
      </trkpt>
      <trkpt lat="49.60264" lon="3.52616">
        <ele>98.34</ele>
        <time>2022-04-25T14:27:38.525Z</time>
      </trkpt>
      <trkpt lat="49.60274" lon="3.52611">
        <ele>97.04</ele>
        <time>2022-04-25T14:27:47.646Z</time>
      </trkpt>
      <trkpt lat="49.60281" lon="3.52604">
        <ele>95.65</ele>
        <time>2022-04-25T14:27:57.147Z</time>
      </trkpt>
      <trkpt lat="49.60288" lon="3.52595">
        <ele>94.6</ele>
        <time>2022-04-25T14:28:06.184Z</time>
      </trkpt>
      <trkpt lat="49.60297" lon="3.52585">
        <ele>93.62</ele>
        <time>2022-04-25T14:28:16.000Z</time>
      </trkpt>
      <trkpt lat="49.60306" lon="3.52576">
        <ele>92.8</ele>
        <time>2022-04-25T14:28:25.184Z</time>
      </trkpt>
      <trkpt lat="49.60314" lon="3.52566">
        <ele>92.38</ele>
        <time>2022-04-25T14:28:34.404Z</time>
      </trkpt>
      <trkpt lat="49.60322" lon="3.52555">
        <ele>92.1</ele>
        <time>2022-04-25T14:28:43.585Z</time>
      </trkpt>
      <trkpt lat="49.60329" lon="3.52542">
        <ele>91.76</ele>
        <time>2022-04-25T14:28:52.724Z</time>
      </trkpt>
      <trkpt lat="49.60335" lon="3.52528">
        <ele>91.54</ele>
        <time>2022-04-25T14:29:02.298Z</time>
      </trkpt>
      <trkpt lat="49.60337" lon="3.5251">
        <ele>91.52</ele>
        <time>2022-04-25T14:29:11.722Z</time>
      </trkpt>
      <trkpt lat="49.6034" lon="3.52504">
        <ele>91.67</ele>
        <time>2022-04-25T14:29:21.223Z</time>
      </trkpt>
      <trkpt lat="49.60339" lon="3.5249">
        <ele>91.59</ele>
        <time>2022-04-25T14:29:30.463Z</time>
      </trkpt>
      <trkpt lat="49.60338" lon="3.52475">
        <ele>91.47</ele>
        <time>2022-04-25T14:29:39.824Z</time>
      </trkpt>
      <trkpt lat="49.60335" lon="3.52462">
        <ele>91.39</ele>
        <time>2022-04-25T14:29:49.842Z</time>
      </trkpt>
      <trkpt lat="49.60332" lon="3.52444">
        <ele>91.22</ele>
        <time>2022-04-25T14:29:59.164Z</time>
      </trkpt>
      <trkpt lat="49.6033" lon="3.52427">
        <ele>91.06</ele>
        <time>2022-04-25T14:30:08.563Z</time>
      </trkpt>
      <trkpt lat="49.60326" lon="3.52407">
        <ele>91.2</ele>
        <time>2022-04-25T14:30:18.000Z</time>
      </trkpt>
      <trkpt lat="49.60324" lon="3.52391">
        <ele>91.21</ele>
        <time>2022-04-25T14:30:27.123Z</time>
      </trkpt>
      <trkpt lat="49.6032" lon="3.52376">
        <ele>91.45</ele>
        <time>2022-04-25T14:30:36.342Z</time>
      </trkpt>
      <trkpt lat="49.60319" lon="3.52359">
        <ele>91.57</ele>
        <time>2022-04-25T14:30:45.363Z</time>
      </trkpt>
      <trkpt lat="49.60318" lon="3.52345">
        <ele>91.74</ele>
        <time>2022-04-25T14:30:54.483Z</time>
      </trkpt>
      <trkpt lat="49.60315" lon="3.52331">
        <ele>92.1</ele>
        <time>2022-04-25T14:31:04.000Z</time>
      </trkpt>
      <trkpt lat="49.60312" lon="3.52314">
        <ele>92.46</ele>
        <time>2022-04-25T14:31:13.443Z</time>
      </trkpt>
      <trkpt lat="49.60309" lon="3.52299">
        <ele>92.45</ele>
        <time>2022-04-25T14:31:22.524Z</time>
      </trkpt>
      <trkpt lat="49.60304" lon="3.52285">
        <ele>92.57</ele>
        <time>2022-04-25T14:31:31.543Z</time>
      </trkpt>
      <trkpt lat="49.603" lon="3.5227">
        <ele>92.41</ele>
        <time>2022-04-25T14:31:40.563Z</time>
      </trkpt>
      <trkpt lat="49.60296" lon="3.52256">
        <ele>91.84</ele>
        <time>2022-04-25T14:31:49.662Z</time>
      </trkpt>
      <trkpt lat="49.60293" lon="3.52239">
        <ele>91.27</ele>
        <time>2022-04-25T14:31:58.863Z</time>
      </trkpt>
      <trkpt lat="49.6029" lon="3.52222">
        <ele>90.98</ele>
        <time>2022-04-25T14:32:08.183Z</time>
      </trkpt>
      <trkpt lat="49.60286" lon="3.52207">
        <ele>90.97</ele>
        <time>2022-04-25T14:32:17.644Z</time>
      </trkpt>
      <trkpt lat="49.60282" lon="3.52191">
        <ele>90.67</ele>
        <time>2022-04-25T14:32:27.002Z</time>
      </trkpt>
      <trkpt lat="49.60276" lon="3.52175">
        <ele>90.38</ele>
        <time>2022-04-25T14:32:36.264Z</time>
      </trkpt>
      <trkpt lat="49.60271" lon="3.52162">
        <ele>90.04</ele>
        <time>2022-04-25T14:32:45.662Z</time>
      </trkpt>
      <trkpt lat="49.60263" lon="3.52152">
        <ele>90.01</ele>
        <time>2022-04-25T14:32:54.988Z</time>
      </trkpt>
      <trkpt lat="49.60258" lon="3.5214">
        <ele>86.94</ele>
        <time>2022-04-25T14:33:04.000Z</time>
      </trkpt>
      <trkpt lat="49.60253" lon="3.52122">
        <ele>86.73</ele>
        <time>2022-04-25T14:33:13.103Z</time>
      </trkpt>
      <trkpt lat="49.60246" lon="3.52106">
        <ele>86.73</ele>
        <time>2022-04-25T14:33:22.562Z</time>
      </trkpt>
      <trkpt lat="49.60239" lon="3.52089">
        <ele>86.73</ele>
        <time>2022-04-25T14:33:32.044Z</time>
      </trkpt>
      <trkpt lat="49.60232" lon="3.52074">
        <ele>86.73</ele>
        <time>2022-04-25T14:33:41.583Z</time>
      </trkpt>
      <trkpt lat="49.60224" lon="3.52059">
        <ele>86.73</ele>
        <time>2022-04-25T14:33:51.704Z</time>
      </trkpt>
      <trkpt lat="49.60219" lon="3.52047">
        <ele>86.73</ele>
        <time>2022-04-25T14:34:01.262Z</time>
      </trkpt>
      <trkpt lat="49.60213" lon="3.52032">
        <ele>86.23</ele>
        <time>2022-04-25T14:34:10.643Z</time>
      </trkpt>
      <trkpt lat="49.60208" lon="3.52017">
        <ele>86.23</ele>
        <time>2022-04-25T14:34:19.950Z</time>
      </trkpt>
      <trkpt lat="49.60202" lon="3.52002">
        <ele>85.43</ele>
        <time>2022-04-25T14:34:29.288Z</time>
      </trkpt>
      <trkpt lat="49.60209" lon="3.51996">
        <ele>86.17</ele>
        <time>2022-04-25T14:34:38.562Z</time>
      </trkpt>
      <trkpt lat="49.60218" lon="3.51997">
        <ele>86.23</ele>
        <time>2022-04-25T14:34:47.644Z</time>
      </trkpt>
      <trkpt lat="49.60232" lon="3.51994">
        <ele>86.23</ele>
        <time>2022-04-25T14:34:57.563Z</time>
      </trkpt>
      <trkpt lat="49.60239" lon="3.51995">
        <ele>87.23</ele>
        <time>2022-04-25T14:35:06.604Z</time>
      </trkpt>
      <trkpt lat="49.6025" lon="3.51989">
        <ele>86.23</ele>
        <time>2022-04-25T14:35:15.644Z</time>
      </trkpt>
      <trkpt lat="49.60262" lon="3.51989">
        <ele>86.98</ele>
        <time>2022-04-25T14:35:25.000Z</time>
      </trkpt>
      <trkpt lat="49.60271" lon="3.51995">
        <ele>86.35</ele>
        <time>2022-04-25T14:35:34.043Z</time>
      </trkpt>
      <trkpt lat="49.60279" lon="3.51992">
        <ele>87.23</ele>
        <time>2022-04-25T14:35:43.164Z</time>
      </trkpt>
      <trkpt lat="49.60284" lon="3.51979">
        <ele>87.23</ele>
        <time>2022-04-25T14:35:52.703Z</time>
      </trkpt>
      <trkpt lat="49.60293" lon="3.51966">
        <ele>87.73</ele>
        <time>2022-04-25T14:36:02.000Z</time>
      </trkpt>
      <trkpt lat="49.60302" lon="3.51954">
        <ele>87.73</ele>
        <time>2022-04-25T14:36:11.642Z</time>
      </trkpt>
      <trkpt lat="49.60311" lon="3.51944">
        <ele>87.73</ele>
        <time>2022-04-25T14:36:20.724Z</time>
      </trkpt>
      <trkpt lat="49.60321" lon="3.51935">
        <ele>87.73</ele>
        <time>2022-04-25T14:36:30.082Z</time>
      </trkpt>
      <trkpt lat="49.6033" lon="3.51926">
        <ele>87.64</ele>
        <time>2022-04-25T14:36:39.383Z</time>
      </trkpt>
      <trkpt lat="49.60339" lon="3.51916">
        <ele>88.03</ele>
        <time>2022-04-25T14:36:48.523Z</time>
      </trkpt>
      <trkpt lat="49.6035" lon="3.51909">
        <ele>88.04</ele>
        <time>2022-04-25T14:36:57.926Z</time>
      </trkpt>
      <trkpt lat="49.60356" lon="3.51897">
        <ele>88.04</ele>
        <time>2022-04-25T14:37:07.783Z</time>
      </trkpt>
      <trkpt lat="49.6036" lon="3.51879">
        <ele>87.64</ele>
        <time>2022-04-25T14:37:17.000Z</time>
      </trkpt>
      <trkpt lat="49.60366" lon="3.51863">
        <ele>88.04</ele>
        <time>2022-04-25T14:37:26.403Z</time>
      </trkpt>
      <trkpt lat="49.60373" lon="3.51851">
        <ele>88.04</ele>
        <time>2022-04-25T14:37:36.000Z</time>
      </trkpt>
      <trkpt lat="49.6038" lon="3.51837">
        <ele>88.64</ele>
        <time>2022-04-25T14:37:45.306Z</time>
      </trkpt>
      <trkpt lat="49.60389" lon="3.51827">
        <ele>88.71</ele>
        <time>2022-04-25T14:37:54.583Z</time>
      </trkpt>
      <trkpt lat="49.60397" lon="3.51812">
        <ele>89.13</ele>
        <time>2022-04-25T14:38:04.642Z</time>
      </trkpt>
      <trkpt lat="49.60403" lon="3.51795">
        <ele>89.14</ele>
        <time>2022-04-25T14:38:14.703Z</time>
      </trkpt>
      <trkpt lat="49.60406" lon="3.5178">
        <ele>89.24</ele>
        <time>2022-04-25T14:38:23.784Z</time>
      </trkpt>
      <trkpt lat="49.60407" lon="3.51773">
        <ele>89.64</ele>
        <time>2022-04-25T14:38:33.000Z</time>
      </trkpt>
      <trkpt lat="49.60407" lon="3.51771">
        <ele>89.13</ele>
        <time>2022-04-25T14:38:42.164Z</time>
      </trkpt>
      <trkpt lat="49.60412" lon="3.51756">
        <ele>89.14</ele>
        <time>2022-04-25T14:38:51.302Z</time>
      </trkpt>
      <trkpt lat="49.60418" lon="3.51742">
        <ele>88.94</ele>
        <time>2022-04-25T14:39:00.803Z</time>
      </trkpt>
      <trkpt lat="49.60426" lon="3.5173">
        <ele>88.94</ele>
        <time>2022-04-25T14:39:10.244Z</time>
      </trkpt>
      <trkpt lat="49.60442" lon="3.51717">
        <ele>88.94</ele>
        <time>2022-04-25T14:39:19.783Z</time>
      </trkpt>
      <trkpt lat="49.60454" lon="3.5171">
        <ele>88.94</ele>
        <time>2022-04-25T14:39:29.183Z</time>
      </trkpt>
      <trkpt lat="49.60465" lon="3.51706">
        <ele>86.04</ele>
        <time>2022-04-25T14:39:38.643Z</time>
      </trkpt>
      <trkpt lat="49.60477" lon="3.51696">
        <ele>86.24</ele>
        <time>2022-04-25T14:39:48.043Z</time>
      </trkpt>
      <trkpt lat="49.60488" lon="3.51692">
        <ele>86.24</ele>
        <time>2022-04-25T14:39:57.822Z</time>
      </trkpt>
      <trkpt lat="49.60497" lon="3.51688">
        <ele>86.24</ele>
        <time>2022-04-25T14:40:07.042Z</time>
      </trkpt>
      <trkpt lat="49.60507" lon="3.51681">
        <ele>86.24</ele>
        <time>2022-04-25T14:40:16.423Z</time>
      </trkpt>
      <trkpt lat="49.60518" lon="3.51672">
        <ele>88.94</ele>
        <time>2022-04-25T14:40:25.602Z</time>
      </trkpt>
      <trkpt lat="49.60528" lon="3.51674">
        <ele>88.84</ele>
        <time>2022-04-25T14:40:35.000Z</time>
      </trkpt>
      <trkpt lat="49.60539" lon="3.5167">
        <ele>88.84</ele>
        <time>2022-04-25T14:40:44.383Z</time>
      </trkpt>
      <trkpt lat="49.60548" lon="3.51659">
        <ele>88.54</ele>
        <time>2022-04-25T14:40:53.602Z</time>
      </trkpt>
      <trkpt lat="49.60559" lon="3.51646">
        <ele>88.44</ele>
        <time>2022-04-25T14:41:03.000Z</time>
      </trkpt>
      <trkpt lat="49.60568" lon="3.51636">
        <ele>88.44</ele>
        <time>2022-04-25T14:41:12.424Z</time>
      </trkpt>
      <trkpt lat="49.60579" lon="3.51634">
        <ele>88.24</ele>
        <time>2022-04-25T14:41:21.803Z</time>
      </trkpt>
      <trkpt lat="49.60588" lon="3.51627">
        <ele>88.24</ele>
        <time>2022-04-25T14:41:31.085Z</time>
      </trkpt>
      <trkpt lat="49.606" lon="3.51619">
        <ele>88.24</ele>
        <time>2022-04-25T14:41:40.390Z</time>
      </trkpt>
      <trkpt lat="49.60611" lon="3.51619">
        <ele>88.34</ele>
        <time>2022-04-25T14:41:49.684Z</time>
      </trkpt>
      <trkpt lat="49.60619" lon="3.51612">
        <ele>88.34</ele>
        <time>2022-04-25T14:41:59.482Z</time>
      </trkpt>
      <trkpt lat="49.60629" lon="3.51604">
        <ele>88.14</ele>
        <time>2022-04-25T14:42:09.000Z</time>
      </trkpt>
      <trkpt lat="49.60641" lon="3.51608">
        <ele>88.04</ele>
        <time>2022-04-25T14:42:18.442Z</time>
      </trkpt>
      <trkpt lat="49.60649" lon="3.5161">
        <ele>88.04</ele>
        <time>2022-04-25T14:42:27.623Z</time>
      </trkpt>
      <trkpt lat="49.6066" lon="3.51611">
        <ele>88.04</ele>
        <time>2022-04-25T14:42:36.923Z</time>
      </trkpt>
      <trkpt lat="49.60671" lon="3.51607">
        <ele>87.34</ele>
        <time>2022-04-25T14:42:46.383Z</time>
      </trkpt>
      <trkpt lat="49.6068" lon="3.51594">
        <ele>87.44</ele>
        <time>2022-04-25T14:42:55.602Z</time>
      </trkpt>
      <trkpt lat="49.6069" lon="3.51582">
        <ele>86.84</ele>
        <time>2022-04-25T14:43:04.723Z</time>
      </trkpt>
      <trkpt lat="49.60702" lon="3.51574">
        <ele>87.44</ele>
        <time>2022-04-25T14:43:14.202Z</time>
      </trkpt>
      <trkpt lat="49.60712" lon="3.51565">
        <ele>87.16</ele>
        <time>2022-04-25T14:43:23.464Z</time>
      </trkpt>
      <trkpt lat="49.60723" lon="3.51548">
        <ele>85.56</ele>
        <time>2022-04-25T14:43:32.805Z</time>
      </trkpt>
      <trkpt lat="49.60732" lon="3.51536">
        <ele>85.54</ele>
        <time>2022-04-25T14:43:42.284Z</time>
      </trkpt>
      <trkpt lat="49.60741" lon="3.5153">
        <ele>87.04</ele>
        <time>2022-04-25T14:43:51.785Z</time>
      </trkpt>
      <trkpt lat="49.60743" lon="3.51525">
        <ele>87.04</ele>
        <time>2022-04-25T14:44:01.017Z</time>
      </trkpt>
      <trkpt lat="49.60748" lon="3.51513">
        <ele>85.74</ele>
        <time>2022-04-25T14:44:10.539Z</time>
      </trkpt>
      <trkpt lat="49.60744" lon="3.51504">
        <ele>85.74</ele>
        <time>2022-04-25T14:44:19.857Z</time>
      </trkpt>
      <trkpt lat="49.60742" lon="3.51491">
        <ele>85.74</ele>
        <time>2022-04-25T14:44:29.000Z</time>
      </trkpt>
      <trkpt lat="49.60739" lon="3.51475">
        <ele>85.74</ele>
        <time>2022-04-25T14:44:38.087Z</time>
      </trkpt>
      <trkpt lat="49.60737" lon="3.51454">
        <ele>85.74</ele>
        <time>2022-04-25T14:44:47.358Z</time>
      </trkpt>
      <trkpt lat="49.60734" lon="3.51436">
        <ele>85.65</ele>
        <time>2022-04-25T14:44:56.697Z</time>
      </trkpt>
      <trkpt lat="49.60729" lon="3.51419">
        <ele>85.64</ele>
        <time>2022-04-25T14:45:06.437Z</time>
      </trkpt>
      <trkpt lat="49.60726" lon="3.514">
        <ele>85.64</ele>
        <time>2022-04-25T14:45:15.678Z</time>
      </trkpt>
      <trkpt lat="49.60725" lon="3.51383">
        <ele>87.34</ele>
        <time>2022-04-25T14:45:24.822Z</time>
      </trkpt>
      <trkpt lat="49.60723" lon="3.51367">
        <ele>87.34</ele>
        <time>2022-04-25T14:45:34.519Z</time>
      </trkpt>
      <trkpt lat="49.60718" lon="3.51347">
        <ele>87.34</ele>
        <time>2022-04-25T14:45:44.000Z</time>
      </trkpt>
      <trkpt lat="49.60715" lon="3.51328">
        <ele>87.34</ele>
        <time>2022-04-25T14:45:53.579Z</time>
      </trkpt>
      <trkpt lat="49.60714" lon="3.5131">
        <ele>86.54</ele>
        <time>2022-04-25T14:46:03.000Z</time>
      </trkpt>
      <trkpt lat="49.6071" lon="3.51292">
        <ele>86.54</ele>
        <time>2022-04-25T14:46:12.778Z</time>
      </trkpt>
      <trkpt lat="49.60703" lon="3.51276">
        <ele>86.54</ele>
        <time>2022-04-25T14:46:22.878Z</time>
      </trkpt>
      <trkpt lat="49.607" lon="3.51261">
        <ele>86.64</ele>
        <time>2022-04-25T14:46:32.218Z</time>
      </trkpt>
      <trkpt lat="49.6069" lon="3.51256">
        <ele>86.64</ele>
        <time>2022-04-25T14:46:41.417Z</time>
      </trkpt>
      <trkpt lat="49.60682" lon="3.51254">
        <ele>86.64</ele>
        <time>2022-04-25T14:46:50.799Z</time>
      </trkpt>
      <trkpt lat="49.60676" lon="3.51248">
        <ele>86.64</ele>
        <time>2022-04-25T14:47:00.378Z</time>
      </trkpt>
      <trkpt lat="49.60669" lon="3.51249">
        <ele>86.64</ele>
        <time>2022-04-25T14:47:09.439Z</time>
      </trkpt>
      <trkpt lat="49.60662" lon="3.51244">
        <ele>86.64</ele>
        <time>2022-04-25T14:47:19.000Z</time>
      </trkpt>
      <trkpt lat="49.60652" lon="3.51237">
        <ele>86.64</ele>
        <time>2022-04-25T14:47:28.538Z</time>
      </trkpt>
      <trkpt lat="49.60644" lon="3.51227">
        <ele>86.64</ele>
        <time>2022-04-25T14:47:38.000Z</time>
      </trkpt>
      <trkpt lat="49.60642" lon="3.51226">
        <ele>86.64</ele>
        <time>2022-04-25T14:47:47.437Z</time>
      </trkpt>
      <trkpt lat="49.60646" lon="3.51214">
        <ele>85.34</ele>
        <time>2022-04-25T14:47:56.477Z</time>
      </trkpt>
      <trkpt lat="49.60626" lon="3.51206">
        <ele>85.34</ele>
        <time>2022-04-25T14:48:05.499Z</time>
      </trkpt>
      <trkpt lat="49.60614" lon="3.51192">
        <ele>85.34</ele>
        <time>2022-04-25T14:48:14.859Z</time>
      </trkpt>
      <trkpt lat="49.60607" lon="3.51181">
        <ele>85.34</ele>
        <time>2022-04-25T14:48:24.357Z</time>
      </trkpt>
      <trkpt lat="49.60602" lon="3.51178">
        <ele>87.73</ele>
        <time>2022-04-25T14:48:33.499Z</time>
      </trkpt>
      <trkpt lat="49.60607" lon="3.51165">
        <ele>89.04</ele>
        <time>2022-04-25T14:48:43.639Z</time>
      </trkpt>
      <trkpt lat="49.60601" lon="3.5115">
        <ele>89.04</ele>
        <time>2022-04-25T14:48:53.000Z</time>
      </trkpt>
      <trkpt lat="49.60595" lon="3.51139">
        <ele>89.04</ele>
        <time>2022-04-25T14:49:02.299Z</time>
      </trkpt>
      <trkpt lat="49.60592" lon="3.51123">
        <ele>89.04</ele>
        <time>2022-04-25T14:49:12.000Z</time>
      </trkpt>
      <trkpt lat="49.60589" lon="3.51114">
        <ele>89.04</ele>
        <time>2022-04-25T14:49:21.478Z</time>
      </trkpt>
      <trkpt lat="49.60586" lon="3.51111">
        <ele>89.04</ele>
        <time>2022-04-25T14:49:31.000Z</time>
      </trkpt>
      <trkpt lat="49.60588" lon="3.51111">
        <ele>89.04</ele>
        <time>2022-04-25T14:49:41.000Z</time>
      </trkpt>
      <trkpt lat="49.60588" lon="3.5111">
        <ele>88.48</ele>
        <time>2022-04-25T14:49:47.000Z</time>
      </trkpt>
    </trkseg>
  </trk>
</gpx>